Observation data for McCamey on 06/14/2019      Previous  Date  Next       Current Mesonet Observations  Soil Data  Daily Summary Page  Observations in Plain Language
KMC4 140500Z 15010KT 26/18 A3006 RMK A01 T02560183  RH  064%=      5-min Rain = 0
KMC4 140501Z 15009KT 26/18 A3006 RMK A01 T02560183  RH  064%=      5-min Rain = 0
KMC4 140502Z 14006KT 26/18 A3006 RMK A01 T02560183  RH  064%=      5-min Rain = 0
KMC4 140503Z 14006KT 26/18 A3006 RMK A01 T02560183  RH  064%=      5-min Rain = 0
KMC4 140504Z 15007KT 26/18 A3006 RMK A01 T02550183  RH  064%=      5-min Rain = 0
KMC4 140505Z 16006KT 26/18 A3006 RMK A01 T02550183  RH  064%=      5-min Rain = 0
KMC4 140506Z 15006KT 26/18 A3006 RMK A01 T02550183  RH  064%=      5-min Rain = 0
KMC4 140507Z 16007KT 26/18 A3007 RMK A01 T02550183  RH  064%=      5-min Rain = 0
KMC4 140508Z 16006KT 26/18 A3007 RMK A01 T02550182  RH  064%=      5-min Rain = 0
KMC4 140509Z 16005KT 25/18 A3007 RMK A01 T02540182  RH  064%=      5-min Rain = 0
KMC4 140510Z 16005KT 26/18 A3007 RMK A01 T02550183  RH  064%=      5-min Rain = 0
KMC4 140511Z 15005KT 26/18 A3007 RMK A01 T02550183  RH  064%=      5-min Rain = 0
KMC4 140512Z 16004KT 26/18 A3007 RMK A01 T02550183  RH  064%=      5-min Rain = 0
KMC4 140513Z 16005KT 26/18 A3007 RMK A01 T02550183  RH  065%=      5-min Rain = 0
KMC4 140514Z 16006KT 25/18 A3007 RMK A01 T02540183  RH  065%=      5-min Rain = 0
KMC4 140515Z 16007KT 25/18 A3007 RMK A01 T02540182  RH  064%=      5-min Rain = 0
KMC4 140516Z 15007KT 25/18 A3007 RMK A01 T02540182  RH  064%=      5-min Rain = 0
KMC4 140517Z 15008KT 25/18 A3007 RMK A01 T02540182  RH  064%=      5-min Rain = 0
KMC4 140518Z 15007KT 26/18 A3007 RMK A01 T02550182  RH  064%=      5-min Rain = 0
KMC4 140519Z 16007KT 25/18 A3007 RMK A01 T02540181  RH  064%=      5-min Rain = 0
KMC4 140520Z 16007KT 25/18 A3007 RMK A01 T02540181  RH  064%=      5-min Rain = 0
KMC4 140521Z 15006KT 25/18 A3007 RMK A01 T02540182  RH  064%=      5-min Rain = 0
KMC4 140522Z 16005KT 25/18 A3007 RMK A01 T02540181  RH  064%=      5-min Rain = 0
KMC4 140523Z 16005KT 25/18 A3007 RMK A01 T02540182  RH  064%=      5-min Rain = 0
KMC4 140524Z 16005KT 25/18 A3007 RMK A01 T02540181  RH  064%=      5-min Rain = 0
KMC4 140525Z 16003KT 25/18 A3007 RMK A01 T02540181  RH  064%=      5-min Rain = 0
KMC4 140526Z 17002KT 25/18 A3007 RMK A01 T02540182  RH  064%=      5-min Rain = 0
KMC4 140527Z 15004KT 25/18 A3007 RMK A01 T02540182  RH  064%=      5-min Rain = 0
KMC4 140528Z 15003KT 25/18 A3007 RMK A01 T02540181  RH  064%=      5-min Rain = 0
KMC4 140529Z 13004KT 25/18 A3008 RMK A01 T02540181  RH  064%=      5-min Rain = 0
KMC4 140530Z 15005KT 25/18 A3008 RMK A01 T02540181  RH  064%=      5-min Rain = 0
KMC4 140531Z 16003KT 25/18 A3008 RMK A01 T02540181  RH  064%=      5-min Rain = 0
KMC4 140532Z 17002KT 25/18 A3008 RMK A01 T02540181  RH  064%=      5-min Rain = 0
KMC4 140533Z 14002KT 25/18 A3008 RMK A01 T02540181  RH  064%=      5-min Rain = 0
KMC4 140534Z 14004KT 25/18 A3008 RMK A01 T02540181  RH  064%=      5-min Rain = 0
KMC4 140535Z 15003KT 25/18 A3008 RMK A01 T02540180  RH  064%=      5-min Rain = 0
KMC4 140536Z 19004KT 26/18 A3008 RMK A01 T02550181  RH  064%=      5-min Rain = 0
KMC4 140537Z 19003KT 26/18 A3008 RMK A01 T02550181  RH  064%=      5-min Rain = 0
KMC4 140538Z 18004KT 26/18 A3008 RMK A01 T02550181  RH  064%=      5-min Rain = 0
KMC4 140539Z 18005KT 26/18 A3009 RMK A01 T02550180  RH  063%=      5-min Rain = 0
KMC4 140540Z 20005KT 26/18 A3009 RMK A01 T02550180  RH  063%=      5-min Rain = 0
KMC4 140541Z 21004KT 26/18 A3009 RMK A01 T02550180  RH  063%=      5-min Rain = 0
KMC4 140542Z 20004KT 26/18 A3009 RMK A01 T02550180  RH  063%=      5-min Rain = 0
KMC4 140543Z 19004KT 26/18 A3009 RMK A01 T02550180  RH  063%=      5-min Rain = 0
KMC4 140544Z 19006KT 26/18 A3009 RMK A01 T02560180  RH  063%=      5-min Rain = 0
KMC4 140545Z 19006KT 26/18 A3009 RMK A01 T02560180  RH  063%=      5-min Rain = 0
KMC4 140546Z 19005KT 26/18 A3009 RMK A01 T02560180  RH  063%=      5-min Rain = 0
KMC4 140547Z 20006KT 26/18 A3009 RMK A01 T02550180  RH  063%=      5-min Rain = 0
KMC4 140548Z 20005KT 26/18 A3009 RMK A01 T02550180  RH  063%=      5-min Rain = 0
KMC4 140549Z 22005KT 26/18 A3009 RMK A01 T02560180  RH  063%=      5-min Rain = 0
KMC4 140550Z 21008KT 26/18 A3009 RMK A01 T02560179  RH  063%=      5-min Rain = 0
KMC4 140551Z 21007KT 26/18 A3009 RMK A01 T02560179  RH  063%=      5-min Rain = 0
KMC4 140552Z 22007KT 26/18 A301 RMK A01 T02560179  RH  062%=      5-min Rain = 0
KMC4 140553Z 24006KT 26/18 A301 RMK A01 T02560179  RH  062%=      5-min Rain = 0
KMC4 140554Z 25007KT 26/18 A301 RMK A01 T02560180  RH  063%=      5-min Rain = 0
KMC4 140555Z 26008KT 26/18 A3011 RMK A01 T02560180  RH  063%=      5-min Rain = 0
KMC4 140556Z 26010KT 26/18 A3011 RMK A01 T02550180  RH  063%=      5-min Rain = 0
KMC4 140557Z 27012KT 26/18 A3011 RMK A01 T02550180  RH  063%=      5-min Rain = 0
KMC4 140558Z 27014KT 26/18 A3012 RMK A01 T02560180  RH  063%=      5-min Rain = 0
KMC4 140559Z 27013KT 26/18 A3012 RMK A01 T02570180  RH  063%=      5-min Rain = 0
KMC4 140600Z 28015KT 26/18 A3012 RMK A01 T02570181  RH  063%=      5-min Rain = 0
KMC4 140601Z 29016KT 26/18 A3012 RMK A01 T02570182  RH  063%=      5-min Rain = 0
KMC4 140602Z 29014KT 26/18 A3012 RMK A01 T02570183  RH  064%=      5-min Rain = 0
KMC4 140603Z 30016KT 26/18 A3012 RMK A01 T02560183  RH  064%=      5-min Rain = 0
KMC4 140604Z 29018G23KT 26/17 A3012 RMK A01 T02550174  RH  061%=      5-min Rain = 0
KMC4 140605Z 30022KT 25/16 A3012 RMK A01 T02500162  RH  058%=      5-min Rain = 0
KMC4 140606Z 30017KT 25/16 A3012 RMK A01 T02450159  RH  059%=      5-min Rain = 0
KMC4 140607Z 30014KT 24/16 A3012 RMK A01 T02410159  RH  060%=      5-min Rain = 0
KMC4 140608Z 31015G21KT 24/16 A3012 RMK A01 T02390160  RH  061%=      5-min Rain = 0
KMC4 140609Z 31015KT 24/16 A3012 RMK A01 T02370160  RH  062%=      5-min Rain = 0
KMC4 140610Z 31013KT 24/16 A3012 RMK A01 T02350160  RH  063%=      5-min Rain = 0
KMC4 140611Z 31012KT 23/16 A3011 RMK A01 T02340161  RH  063%=      5-min Rain = 0
KMC4 140612Z 30010KT 23/16 A3011 RMK A01 T02330161  RH  064%=      5-min Rain = 0
KMC4 140613Z 28009G14KT 23/16 A3012 RMK A01 T02330162  RH  064%=      5-min Rain = 0
KMC4 140614Z 27007KT 23/16 A3012 RMK A01 T02330162  RH  065%=      5-min Rain = 0
KMC4 140615Z 28007KT 23/16 A3011 RMK A01 T02330163  RH  064%=      5-min Rain = 0
KMC4 140616Z 28009KT 23/16 A3011 RMK A01 T02340163  RH  064%=      5-min Rain = 0
KMC4 140617Z 27009KT 24/16 A3011 RMK A01 T02350162  RH  063%=      5-min Rain = 0
KMC4 140618Z 28009KT 24/16 A3011 RMK A01 T02350162  RH  063%=      5-min Rain = 0
KMC4 140619Z 29008KT 24/16 A3011 RMK A01 T02350162  RH  064%=      5-min Rain = 0
KMC4 140620Z 30007KT 24/16 A301 RMK A01 T02350163  RH  064%=      5-min Rain = 0
KMC4 140621Z 30007KT 24/16 A301 RMK A01 T02350163  RH  064%=      5-min Rain = 0
KMC4 140622Z 29005KT 23/16 A301 RMK A01 T02340162  RH  064%=      5-min Rain = 0
KMC4 140623Z 29004KT 23/16 A301 RMK A01 T02340162  RH  064%=      5-min Rain = 0
KMC4 140624Z 27004KT 24/16 A301 RMK A01 T02350163  RH  064%=      5-min Rain = 0
KMC4 140625Z 26004KT 23/16 A301 RMK A01 T02340163  RH  064%=      5-min Rain = 0
KMC4 140626Z 26004KT 23/16 A301 RMK A01 T02340163  RH  064%=      5-min Rain = 0
KMC4 140627Z 26004KT 23/16 A301 RMK A01 T02330163  RH  064%=      5-min Rain = 0
KMC4 140628Z 26004KT 23/16 A3009 RMK A01 T02340162  RH  064%=      5-min Rain = 0
KMC4 140629Z 25004KT 23/16 A3009 RMK A01 T02340162  RH  064%=      5-min Rain = 0
KMC4 140630Z 23005KT 23/16 A3009 RMK A01 T02340161  RH  064%=      5-min Rain = 0
KMC4 140631Z 20005KT 23/16 A3009 RMK A01 T02340161  RH  064%=      5-min Rain = 0
KMC4 140632Z 19006KT 23/16 A3009 RMK A01 T02330161  RH  064%=      5-min Rain = 0
KMC4 140633Z 20004KT 23/16 A3008 RMK A01 T02340160  RH  063%=      5-min Rain = 0
KMC4 140634Z 20004KT 23/16 A3008 RMK A01 T02330160  RH  063%=      5-min Rain = 0
KMC4 140635Z 19004KT 23/16 A3008 RMK A01 T02340160  RH  063%=      5-min Rain = 0
KMC4 140636Z 20004KT 23/16 A3008 RMK A01 T02340161  RH  064%=      5-min Rain = 0
KMC4 140637Z 21004KT 23/16 A3008 RMK A01 T02340161  RH  064%=      5-min Rain = 0
KMC4 140638Z 20004KT 23/16 A3008 RMK A01 T02330161  RH  064%=      5-min Rain = 0
KMC4 140639Z 19004KT 23/16 A3008 RMK A01 T02330162  RH  064%=      5-min Rain = 0
KMC4 140640Z 18005KT 23/16 A3008 RMK A01 T02330162  RH  064%=      5-min Rain = 0
KMC4 140641Z 17005KT 23/16 A3007 RMK A01 T02330162  RH  065%=      5-min Rain = 0
KMC4 140642Z 16006KT 23/16 A3007 RMK A01 T02320163  RH  065%=      5-min Rain = 0
KMC4 140643Z 15005KT 23/16 A3007 RMK A01 T02320164  RH  066%=      5-min Rain = 0
KMC4 140644Z 15005KT 23/16 A3007 RMK A01 T02310164  RH  066%=      5-min Rain = 0
KMC4 140645Z 15005KT 23/16 A3007 RMK A01 T02310164  RH  066%=      5-min Rain = 0
KMC4 140646Z 15004KT 23/16 A3007 RMK A01 T02310164  RH  066%=      5-min Rain = 0
KMC4 140647Z 14003KT 23/17 A3007 RMK A01 T02320165  RH  066%=      5-min Rain = 0
KMC4 140648Z 14003KT 23/17 A3007 RMK A01 T02310165  RH  066%=      5-min Rain = 0
KMC4 140649Z 14002KT 23/17 A3007 RMK A01 T02310165  RH  066%=      5-min Rain = 0
KMC4 140650Z 15003KT 23/16 A3007 RMK A01 T02310164  RH  066%=      5-min Rain = 0
KMC4 140651Z 15001KT 23/16 A3007 RMK A01 T02310164  RH  066%=      5-min Rain = 0
KMC4 140652Z 15001KT 23/16 A3007 RMK A01 T02310164  RH  066%=      5-min Rain = 0
KMC4 140653Z 15000KT 23/17 A3007 RMK A01 T02310165  RH  066%=      5-min Rain = 0
KMC4 140654Z 00000KT 23/16 A3007 RMK A01 T02310164  RH  066%=      5-min Rain = 0
KMC4 140655Z 15000KT 23/17 A3008 RMK A01 T02310165  RH  066%=      5-min Rain = 0
KMC4 140656Z 34001KT 23/17 A3008 RMK A01 T02320166  RH  066%=      5-min Rain = 0
KMC4 140657Z 33001KT 23/17 A3008 RMK A01 T02320165  RH  066%=      5-min Rain = 0
KMC4 140658Z 34001KT 23/17 A3008 RMK A01 T02320166  RH  066%=      5-min Rain = 0
KMC4 140659Z 33001KT 23/17 A3008 RMK A01 T02320168  RH  067%=      5-min Rain = 0
KMC4 140700Z 34001KT 23/17 A3008 RMK A01 T02320168  RH  067%=      5-min Rain = 0
KMC4 140701Z 36001KT 23/17 A3008 RMK A01 T02320169  RH  068%=      5-min Rain = 0
KMC4 140702Z 02001KT 23/17 A3008 RMK A01 T02320171  RH  069%=      5-min Rain = 0
KMC4 140703Z 09000KT 23/17 A3007 RMK A01 T02320170  RH  068%=      5-min Rain = 0
KMC4 140704Z 09002KT 23/17 A3007 RMK A01 T02320172  RH  069%=      5-min Rain = 0
KMC4 140705Z 10003KT 23/17 A3007 RMK A01 T02330173  RH  069%=      5-min Rain = 0
KMC4 140706Z 10004KT 23/17 A3006 RMK A01 T02330174  RH  070%=      5-min Rain = 0
KMC4 140707Z 11005KT 23/18 A3006 RMK A01 T02320180  RH  072%=      5-min Rain = 0
KMC4 140708Z 11006KT 23/18 A3006 RMK A01 T02320181  RH  073%=      5-min Rain = 0
KMC4 140709Z 12008KT 23/19 A3005 RMK A01 T02300185  RH  076%=      5-min Rain = 0
KMC4 140710Z 12010KT 23/18 A3004 RMK A01 T02290184  RH  076%=      5-min Rain = 0
KMC4 140711Z 12011KT 23/18 A3004 RMK A01 T02290180  RH  074%=      5-min Rain = 0
KMC4 140712Z 13013KT 23/18 A3004 RMK A01 T02290181  RH  075%=      5-min Rain = 0
KMC4 140713Z 12014KT 23/18 A3003 RMK A01 T02280182  RH  075%=      5-min Rain = 0
KMC4 140714Z 12015KT 23/18 A3002 RMK A01 T02280180  RH  074%=      5-min Rain = 0
KMC4 140715Z 12015KT 23/18 A3002 RMK A01 T02280180  RH  074%=      5-min Rain = 0
KMC4 140716Z 12015KT 23/18 A3001 RMK A01 T02280180  RH  074%=      5-min Rain = 0
KMC4 140717Z 12013KT 23/18 A3001 RMK A01 T02290180  RH  074%=      5-min Rain = 0
KMC4 140718Z 12011KT 23/18 A3001 RMK A01 T02290182  RH  074%=      5-min Rain = 0
KMC4 140719Z 12010KT 23/18 A3001 RMK A01 T02280181  RH  074%=      5-min Rain = 0
KMC4 140720Z 12010KT 23/18 A3001 RMK A01 T02280180  RH  074%=      5-min Rain = 0
KMC4 140721Z 12007KT 23/18 A3001 RMK A01 T02280182  RH  075%=      5-min Rain = 0
KMC4 140722Z 12007KT 23/18 A3001 RMK A01 T02280182  RH  076%=      5-min Rain = 0
KMC4 140723Z 13008KT 23/18 A3001 RMK A01 T02280183  RH  076%=      5-min Rain = 0
KMC4 140724Z 13008KT 23/18 A3001 RMK A01 T02280184  RH  076%=      5-min Rain = 0
KMC4 140725Z 13008KT 23/18 A3001 RMK A01 T02280184  RH  076%=      5-min Rain = 0
KMC4 140726Z 13008KT 23/19 A3001 RMK A01 T02270185  RH  077%=      5-min Rain = 0
KMC4 140727Z 13008KT 23/18 A3001 RMK A01 T02270184  RH  077%=      5-min Rain = 0
KMC4 140728Z 14007KT 23/18 A3001 RMK A01 T02270184  RH  076%=      5-min Rain = 0
KMC4 140729Z 15006KT 23/19 A3001 RMK A01 T02280185  RH  077%=      5-min Rain = 0
KMC4 140730Z 15008KT 23/18 A3001 RMK A01 T02280184  RH  076%=      5-min Rain = 0
KMC4 140731Z 14009KT 23/18 A3001 RMK A01 T02290184  RH  076%=      5-min Rain = 0
KMC4 140732Z 15009KT 23/19 A3001 RMK A01 T02300185  RH  076%=      5-min Rain = 0
KMC4 140733Z 15009KT 23/19 A3001 RMK A01 T02310186  RH  076%=      5-min Rain = 0
KMC4 140734Z 16011KT 23/19 A3001 RMK A01 T02310185  RH  075%=      5-min Rain = 0
KMC4 140735Z 16009KT 23/19 A3001 RMK A01 T02320186  RH  076%=      5-min Rain = 0
KMC4 140736Z 16010G16KT 23/19 A3001 RMK A01 T02320187  RH  076%=      5-min Rain = 0
KMC4 140737Z 16010KT 23/19 A3001 RMK A01 T02310186  RH  076%=      5-min Rain = 0
KMC4 140738Z 16010KT 23/19 A30 RMK A01 T02310186  RH  076%=      5-min Rain = 0
KMC4 140739Z 16012KT 23/19 A30 RMK A01 T02310187  RH  076%=      5-min Rain = 0
KMC4 140740Z 16012KT 23/19 A30 RMK A01 T02310186  RH  075%=      5-min Rain = 0
KMC4 140741Z 16013KT 23/19 A2999 RMK A01 T02320188  RH  076%=      5-min Rain = 0
KMC4 140742Z 16014KT 23/19 A2999 RMK A01 T02320188  RH  076%=      5-min Rain = 0
KMC4 140743Z 15015KT 23/19 A2999 RMK A01 T02320188  RH  076%=      5-min Rain = 0
KMC4 140744Z 15015KT 23/19 A2998 RMK A01 T02310187  RH  076%=      5-min Rain = 0
KMC4 140745Z 15014KT 23/19 A2998 RMK A01 T02330186  RH  075%=      5-min Rain = 0
KMC4 140746Z 15015KT 23/19 A2998 RMK A01 T02330186  RH  075%=      5-min Rain = 0
KMC4 140747Z 15014KT 23/18 A2999 RMK A01 T02340184  RH  073%=      5-min Rain = 0
KMC4 140748Z 15012KT 24/18 A2999 RMK A01 T02350184  RH  073%=      5-min Rain = 0
KMC4 140749Z 15012KT 24/18 A2999 RMK A01 T02370184  RH  073%=      5-min Rain = 0
KMC4 140750Z 16011G16KT 24/18 A2999 RMK A01 T02370184  RH  072%=      5-min Rain = 0
KMC4 140751Z 16015KT 24/18 A2999 RMK A01 T02370183  RH  072%=      5-min Rain = 0
KMC4 140752Z 16016G24KT 24/18 A2998 RMK A01 T02380182  RH  071%=      5-min Rain = 0
KMC4 140753Z 16019KT 24/18 A2998 RMK A01 T02390181  RH  070%=      5-min Rain = 0
KMC4 140754Z 16019KT 24/18 A2998 RMK A01 T02400181  RH  070%=      5-min Rain = 0
KMC4 140755Z 15019KT 24/18 A2998 RMK A01 T02410181  RH  069%=      5-min Rain = 0
KMC4 140756Z 15018KT 24/18 A2997 RMK A01 T02410181  RH  069%=      5-min Rain = 0
KMC4 140757Z 15017KT 24/18 A2997 RMK A01 T02410181  RH  069%=      5-min Rain = 0
KMC4 140758Z 15016KT 24/18 A2997 RMK A01 T02410181  RH  069%=      5-min Rain = 0
KMC4 140759Z 16016KT 24/18 A2998 RMK A01 T02410180  RH  069%=      5-min Rain = 0
KMC4 140800Z 16016KT 24/18 A2998 RMK A01 T02410180  RH  068%=      5-min Rain = 0
KMC4 140801Z 16016KT 24/18 A2998 RMK A01 T02420180  RH  068%=      5-min Rain = 0
KMC4 140802Z 16015G20KT 24/18 A2998 RMK A01 T02420179  RH  068%=      5-min Rain = 0
KMC4 140803Z 16013KT 24/18 A2998 RMK A01 T02420179  RH  068%=      5-min Rain = 0
KMC4 140804Z 16014KT 24/18 A2998 RMK A01 T02420180  RH  068%=      5-min Rain = 0
KMC4 140805Z 15016G22KT 24/18 A2998 RMK A01 T02420180  RH  068%=      5-min Rain = 0
KMC4 140806Z 16016KT 24/18 A2998 RMK A01 T02420180  RH  069%=      5-min Rain = 0
KMC4 140807Z 16012KT 24/18 A2998 RMK A01 T02410181  RH  069%=      5-min Rain = 0
KMC4 140808Z 16013KT 24/18 A2998 RMK A01 T02410180  RH  069%=      5-min Rain = 0
KMC4 140809Z 16013KT 24/18 A2999 RMK A01 T02400180  RH  069%=      5-min Rain = 0
KMC4 140810Z 17013KT 24/18 A2999 RMK A01 T02400180  RH  069%=      5-min Rain = 0
KMC4 140811Z 16014KT 24/18 A2999 RMK A01 T02400179  RH  068%=      5-min Rain = 0
KMC4 140812Z 17011KT 24/18 A2999 RMK A01 T02410180  RH  069%=      5-min Rain = 0
KMC4 140813Z 16013KT 24/18 A2999 RMK A01 T02400181  RH  070%=      5-min Rain = 0
KMC4 140814Z 15016KT 24/18 A2999 RMK A01 T02400180  RH  069%=      5-min Rain = 0
KMC4 140815Z 16016KT 24/18 A2999 RMK A01 T02400179  RH  069%=      5-min Rain = 0
KMC4 140816Z 15016KT 24/18 A2999 RMK A01 T02400179  RH  069%=      5-min Rain = 0
KMC4 140817Z 16015KT 24/18 A2999 RMK A01 T02400179  RH  069%=      5-min Rain = 0
KMC4 140818Z 15012KT 24/18 A2999 RMK A01 T02400179  RH  069%=      5-min Rain = 0
KMC4 140819Z 16014KT 24/18 A2999 RMK A01 T02400180  RH  069%=      5-min Rain = 0
KMC4 140820Z 16012KT 24/18 A2999 RMK A01 T02400180  RH  069%=      5-min Rain = 0
KMC4 140821Z 16011KT 24/18 A2999 RMK A01 T02400180  RH  069%=      5-min Rain = 0
KMC4 140822Z 16013G18KT 24/18 A2999 RMK A01 T02400180  RH  069%=      5-min Rain = 0
KMC4 140823Z 15013KT 24/18 A2999 RMK A01 T02400179  RH  069%=      5-min Rain = 0
KMC4 140824Z 14012KT 24/18 A2999 RMK A01 T02400179  RH  068%=      5-min Rain = 0
KMC4 140825Z 14012KT 24/18 A2999 RMK A01 T02400179  RH  069%=      5-min Rain = 0
KMC4 140826Z 14009KT 24/18 A2999 RMK A01 T02400179  RH  069%=      5-min Rain = 0
KMC4 140827Z 15007KT 24/18 A30 RMK A01 T02400180  RH  069%=      5-min Rain = 0
KMC4 140828Z 16010KT 24/18 A30 RMK A01 T02400179  RH  069%=      5-min Rain = 0
KMC4 140829Z 16008KT 24/18 A3001 RMK A01 T02390179  RH  069%=      5-min Rain = 0
KMC4 140830Z 16013KT 24/18 A30 RMK A01 T02390179  RH  069%=      5-min Rain = 0
KMC4 140831Z 16012KT 24/18 A30 RMK A01 T02400179  RH  069%=      5-min Rain = 0
KMC4 140832Z 15012KT 24/18 A30 RMK A01 T02400179  RH  069%=      5-min Rain = 0
KMC4 140833Z 16014KT 24/18 A30 RMK A01 T02400179  RH  069%=      5-min Rain = 0
KMC4 140834Z 16010KT 24/18 A30 RMK A01 T02400179  RH  068%=      5-min Rain = 0
KMC4 140835Z 16008KT 24/18 A30 RMK A01 T02400180  RH  069%=      5-min Rain = 0
KMC4 140836Z 16008KT 24/18 A30 RMK A01 T02400179  RH  069%=      5-min Rain = 0
KMC4 140837Z 16010KT 24/18 A30 RMK A01 T02400180  RH  069%=      5-min Rain = 0
KMC4 140838Z 16010KT 24/18 A30 RMK A01 T02400179  RH  069%=      5-min Rain = 0
KMC4 140839Z 15008KT 24/18 A30 RMK A01 T02400179  RH  069%=      5-min Rain = 0
KMC4 140840Z 16008KT 24/18 A30 RMK A01 T02400180  RH  069%=      5-min Rain = 0
KMC4 140841Z 16008KT 24/18 A3001 RMK A01 T02400180  RH  069%=      5-min Rain = 0
KMC4 140842Z 16006KT 24/18 A3001 RMK A01 T02390180  RH  069%=      5-min Rain = 0
KMC4 140843Z 17006KT 24/18 A3001 RMK A01 T02390180  RH  070%=      5-min Rain = 0
KMC4 140844Z 16005KT 24/18 A3001 RMK A01 T02380180  RH  070%=      5-min Rain = 0
KMC4 140845Z 18005KT 24/18 A3001 RMK A01 T02380180  RH  070%=      5-min Rain = 0
KMC4 140846Z 18006KT 24/18 A3001 RMK A01 T02380180  RH  070%=      5-min Rain = 0
KMC4 140847Z 19006KT 24/18 A3002 RMK A01 T02380180  RH  070%=      5-min Rain = 0
KMC4 140848Z 18007KT 24/18 A3001 RMK A01 T02380180  RH  070%=      5-min Rain = 0
KMC4 140849Z 18006KT 24/18 A3001 RMK A01 T02370180  RH  070%=      5-min Rain = 0
KMC4 140850Z 16007KT 24/18 A3001 RMK A01 T02370180  RH  070%=      5-min Rain = 0
KMC4 140851Z 16007KT 24/18 A30 RMK A01 T02370180  RH  070%=      5-min Rain = 0
KMC4 140852Z 15007KT 24/18 A30 RMK A01 T02370181  RH  071%=      5-min Rain = 0
KMC4 140853Z 16008KT 24/18 A30 RMK A01 T02360180  RH  071%=      5-min Rain = 0
KMC4 140854Z 16009KT 24/18 A30 RMK A01 T02360179  RH  070%=      5-min Rain = 0
KMC4 140855Z 16009KT 24/18 A30 RMK A01 T02370179  RH  070%=      5-min Rain = 0
KMC4 140856Z 16008KT 24/18 A30 RMK A01 T02370179  RH  070%=      5-min Rain = 0
KMC4 140857Z 16008KT 24/18 A30 RMK A01 T02380179  RH  070%=      5-min Rain = 0
KMC4 140858Z 15007KT 24/18 A30 RMK A01 T02380179  RH  070%=      5-min Rain = 0
KMC4 140859Z 15008KT 24/18 A30 RMK A01 T02380179  RH  070%=      5-min Rain = 0
KMC4 140900Z 15007KT 24/18 A2999 RMK A01 T02370179  RH  070%=      5-min Rain = 0
KMC4 140901Z 15009KT 24/18 A2999 RMK A01 T02370180  RH  070%=      5-min Rain = 0
KMC4 140902Z 14009KT 24/18 A2999 RMK A01 T02370180  RH  070%=      5-min Rain = 0
KMC4 140903Z 14009KT 24/18 A2999 RMK A01 T02370180  RH  070%=      5-min Rain = 0
KMC4 140904Z 14009KT 24/18 A2999 RMK A01 T02370179  RH  070%=      5-min Rain = 0
KMC4 140905Z 15011KT 24/18 A2999 RMK A01 T02370180  RH  070%=      5-min Rain = 0
KMC4 140906Z 14011KT 24/18 A2999 RMK A01 T02370179  RH  070%=      5-min Rain = 0
KMC4 140907Z 14011KT 24/18 A2999 RMK A01 T02370179  RH  070%=      5-min Rain = 0
KMC4 140908Z 14011KT 24/18 A2999 RMK A01 T02370179  RH  070%=      5-min Rain = 0
KMC4 140909Z 15010KT 24/18 A2999 RMK A01 T02370179  RH  070%=      5-min Rain = 0
KMC4 140910Z 15010KT 24/18 A2999 RMK A01 T02360179  RH  070%=      5-min Rain = 0
KMC4 140911Z 16011KT 24/18 A2999 RMK A01 T02360179  RH  070%=      5-min Rain = 0
KMC4 140912Z 15010KT 24/18 A2999 RMK A01 T02360179  RH  070%=      5-min Rain = 0
KMC4 140913Z 16010KT 24/18 A2999 RMK A01 T02360178  RH  070%=      5-min Rain = 0
KMC4 140914Z 16010KT 24/18 A2999 RMK A01 T02360178  RH  070%=      5-min Rain = 0
KMC4 140915Z 16010KT 24/18 A2999 RMK A01 T02370179  RH  070%=      5-min Rain = 0
KMC4 140916Z 17011KT 24/18 A2999 RMK A01 T02370178  RH  070%=      5-min Rain = 0
KMC4 140917Z 17012KT 24/18 A2999 RMK A01 T02370178  RH  069%=      5-min Rain = 0
KMC4 140918Z 17012KT 24/18 A2999 RMK A01 T02370177  RH  069%=      5-min Rain = 0
KMC4 140919Z 16012KT 24/18 A2999 RMK A01 T02380178  RH  069%=      5-min Rain = 0
KMC4 140920Z 17014KT 24/18 A2999 RMK A01 T02380178  RH  069%=      5-min Rain = 0
KMC4 140921Z 16014KT 24/18 A2999 RMK A01 T02380178  RH  069%=      5-min Rain = 0
KMC4 140922Z 17013G18KT 24/18 A2999 RMK A01 T02380178  RH  069%=      5-min Rain = 0
KMC4 140923Z 16013KT 24/18 A30 RMK A01 T02380178  RH  069%=      5-min Rain = 0
KMC4 140924Z 17014G19KT 24/18 A30 RMK A01 T02380178  RH  069%=      5-min Rain = 0
KMC4 140925Z 17013KT 24/18 A30 RMK A01 T02380178  RH  069%=      5-min Rain = 0
KMC4 140926Z 17011KT 24/18 A30 RMK A01 T02380178  RH  069%=      5-min Rain = 0
KMC4 140927Z 16010KT 24/18 A30 RMK A01 T02380179  RH  069%=      5-min Rain = 0
KMC4 140928Z 16010KT 24/18 A30 RMK A01 T02370179  RH  070%=      5-min Rain = 0
KMC4 140929Z 16011KT 24/18 A30 RMK A01 T02370179  RH  070%=      5-min Rain = 0
KMC4 140930Z 16011KT 24/18 A30 RMK A01 T02370178  RH  070%=      5-min Rain = 0
KMC4 140931Z 16010KT 24/18 A30 RMK A01 T02370178  RH  070%=      5-min Rain = 0
KMC4 140932Z 16010KT 24/18 A3001 RMK A01 T02370178  RH  069%=      5-min Rain = 0
KMC4 140933Z 17010KT 24/18 A3001 RMK A01 T02370178  RH  069%=      5-min Rain = 0
KMC4 140934Z 17011KT 24/18 A3001 RMK A01 T02370178  RH  070%=      5-min Rain = 0
KMC4 140935Z 16010KT 24/18 A3001 RMK A01 T02370178  RH  070%=      5-min Rain = 0
KMC4 140936Z 16009KT 24/18 A3001 RMK A01 T02370179  RH  070%=      5-min Rain = 0
KMC4 140937Z 15008KT 24/18 A3001 RMK A01 T02370178  RH  070%=      5-min Rain = 0
KMC4 140938Z 15008KT 24/18 A3001 RMK A01 T02370178  RH  070%=      5-min Rain = 0
KMC4 140939Z 16008KT 24/18 A3001 RMK A01 T02360178  RH  070%=      5-min Rain = 0
KMC4 140940Z 16007KT 24/18 A3001 RMK A01 T02370179  RH  070%=      5-min Rain = 0
KMC4 140941Z 16009KT 24/18 A3001 RMK A01 T02360179  RH  070%=      5-min Rain = 0
KMC4 140942Z 16008KT 24/18 A3001 RMK A01 T02360178  RH  070%=      5-min Rain = 0
KMC4 140943Z 16008KT 24/18 A3001 RMK A01 T02360178  RH  070%=      5-min Rain = 0
KMC4 140944Z 15008KT 24/18 A3001 RMK A01 T02360178  RH  070%=      5-min Rain = 0
KMC4 140945Z 15009KT 24/18 A30 RMK A01 T02350179  RH  070%=      5-min Rain = 0
KMC4 140946Z 15009KT 24/18 A30 RMK A01 T02350179  RH  071%=      5-min Rain = 0
KMC4 140947Z 15007KT 24/18 A30 RMK A01 T02350179  RH  071%=      5-min Rain = 0
KMC4 140948Z 15008KT 23/18 A30 RMK A01 T02340179  RH  071%=      5-min Rain = 0
KMC4 140949Z 14008KT 23/18 A30 RMK A01 T02340179  RH  071%=      5-min Rain = 0
KMC4 140950Z 15008KT 23/18 A30 RMK A01 T02330178  RH  071%=      5-min Rain = 0
KMC4 140951Z 15007KT 23/18 A30 RMK A01 T02330179  RH  072%=      5-min Rain = 0
KMC4 140952Z 15007KT 23/18 A30 RMK A01 T02330179  RH  072%=      5-min Rain = 0
KMC4 140953Z 15007KT 23/18 A30 RMK A01 T02320179  RH  072%=      5-min Rain = 0
KMC4 140954Z 15007KT 23/18 A30 RMK A01 T02320179  RH  072%=      5-min Rain = 0
KMC4 140955Z 15007KT 23/18 A30 RMK A01 T02320179  RH  072%=      5-min Rain = 0
KMC4 140956Z 14007KT 23/18 A30 RMK A01 T02320179  RH  072%=      5-min Rain = 0
KMC4 140957Z 14006KT 23/18 A30 RMK A01 T02320179  RH  072%=      5-min Rain = 0
KMC4 140958Z 14007KT 23/18 A30 RMK A01 T02320178  RH  072%=      5-min Rain = 0
KMC4 140959Z 14007KT 23/18 A30 RMK A01 T02320178  RH  072%=      5-min Rain = 0
KMC4 141000Z 14007KT 23/18 A30 RMK A01 T02320178  RH  072%=      5-min Rain = 0
KMC4 141001Z 15008KT 23/18 A30 RMK A01 T02320178  RH  072%=      5-min Rain = 0
KMC4 141002Z 15007KT 23/18 A30 RMK A01 T02320178  RH  072%=      5-min Rain = 0
KMC4 141003Z 15008KT 23/18 A30 RMK A01 T02320178  RH  072%=      5-min Rain = 0
KMC4 141004Z 15009KT 23/18 A30 RMK A01 T02320178  RH  072%=      5-min Rain = 0
KMC4 141005Z 15009KT 23/18 A30 RMK A01 T02320177  RH  072%=      5-min Rain = 0
KMC4 141006Z 16009KT 23/18 A2999 RMK A01 T02320177  RH  071%=      5-min Rain = 0
KMC4 141007Z 15009KT 23/18 A2999 RMK A01 T02320177  RH  071%=      5-min Rain = 0
KMC4 141008Z 15010KT 23/18 A2999 RMK A01 T02330177  RH  071%=      5-min Rain = 0
KMC4 141009Z 15009KT 23/18 A2999 RMK A01 T02330177  RH  071%=      5-min Rain = 0
KMC4 141010Z 15009KT 23/18 A2999 RMK A01 T02330178  RH  071%=      5-min Rain = 0
KMC4 141011Z 15008KT 23/18 A2999 RMK A01 T02330178  RH  071%=      5-min Rain = 0
KMC4 141012Z 15007KT 23/18 A2999 RMK A01 T02330178  RH  071%=      5-min Rain = 0
KMC4 141013Z 15007KT 23/18 A2999 RMK A01 T02320178  RH  071%=      5-min Rain = 0
KMC4 141014Z 16007KT 23/18 A2999 RMK A01 T02320177  RH  071%=      5-min Rain = 0
KMC4 141015Z 16006KT 23/18 A2999 RMK A01 T02320178  RH  071%=      5-min Rain = 0
KMC4 141016Z 16006KT 23/18 A2999 RMK A01 T02320178  RH  071%=      5-min Rain = 0
KMC4 141017Z 16007KT 23/18 A2999 RMK A01 T02320178  RH  072%=      5-min Rain = 0
KMC4 141018Z 16006KT 23/18 A30 RMK A01 T02320177  RH  072%=      5-min Rain = 0
KMC4 141019Z 15005KT 23/18 A30 RMK A01 T02320178  RH  072%=      5-min Rain = 0
KMC4 141020Z 15006KT 23/18 A30 RMK A01 T02310177  RH  072%=      5-min Rain = 0
KMC4 141021Z 15005KT 23/18 A30 RMK A01 T02310178  RH  072%=      5-min Rain = 0
KMC4 141022Z 14005KT 23/18 A30 RMK A01 T02310178  RH  072%=      5-min Rain = 0
KMC4 141023Z 13005KT 23/18 A30 RMK A01 T02310178  RH  072%=      5-min Rain = 0
KMC4 141024Z 12005KT 23/18 A30 RMK A01 T02300178  RH  072%=      5-min Rain = 0
KMC4 141025Z 12005KT 23/18 A30 RMK A01 T02300178  RH  072%=      5-min Rain = 0
KMC4 141026Z 12006KT 23/18 A30 RMK A01 T02300178  RH  072%=      5-min Rain = 0
KMC4 141027Z 12006KT 23/18 A30 RMK A01 T02300177  RH  072%=      5-min Rain = 0
KMC4 141028Z 12006KT 23/18 A30 RMK A01 T02300177  RH  072%=      5-min Rain = 0
KMC4 141029Z 12005KT 23/18 A30 RMK A01 T02300177  RH  072%=      5-min Rain = 0
KMC4 141030Z 12005KT 23/18 A30 RMK A01 T02300177  RH  072%=      5-min Rain = 0
KMC4 141031Z 13005KT 23/18 A30 RMK A01 T02300176  RH  072%=      5-min Rain = 0
KMC4 141032Z 13004KT 23/18 A30 RMK A01 T02300177  RH  072%=      5-min Rain = 0
KMC4 141033Z 13006KT 23/18 A30 RMK A01 T02300177  RH  072%=      5-min Rain = 0
KMC4 141034Z 14006KT 23/18 A30 RMK A01 T02290177  RH  072%=      5-min Rain = 0
KMC4 141035Z 14006KT 23/18 A2999 RMK A01 T02290177  RH  073%=      5-min Rain = 0
KMC4 141036Z 14006KT 23/18 A2999 RMK A01 T02290177  RH  073%=      5-min Rain = 0
KMC4 141037Z 14006KT 23/18 A2999 RMK A01 T02290177  RH  073%=      5-min Rain = 0
KMC4 141038Z 14007KT 23/18 A2999 RMK A01 T02290177  RH  073%=      5-min Rain = 0
KMC4 141039Z 14006KT 23/18 A2999 RMK A01 T02290177  RH  072%=      5-min Rain = 0
KMC4 141040Z 14006KT 23/18 A2999 RMK A01 T02290177  RH  072%=      5-min Rain = 0
KMC4 141041Z 15006KT 23/18 A2999 RMK A01 T02290177  RH  072%=      5-min Rain = 0
KMC4 141042Z 14005KT 23/18 A2999 RMK A01 T02290177  RH  072%=      5-min Rain = 0
KMC4 141043Z 14005KT 23/18 A2999 RMK A01 T02290177  RH  073%=      5-min Rain = 0
KMC4 141044Z 14006KT 23/18 A2999 RMK A01 T02290177  RH  073%=      5-min Rain = 0
KMC4 141045Z 14005KT 23/18 A2999 RMK A01 T02290177  RH  073%=      5-min Rain = 0
KMC4 141046Z 14006KT 23/18 A2999 RMK A01 T02280177  RH  073%=      5-min Rain = 0
KMC4 141047Z 14006KT 23/18 A2999 RMK A01 T02280177  RH  073%=      5-min Rain = 0
KMC4 141048Z 14007KT 23/18 A2999 RMK A01 T02280177  RH  073%=      5-min Rain = 0
KMC4 141049Z 13006KT 23/18 A2999 RMK A01 T02280177  RH  073%=      5-min Rain = 0
KMC4 141050Z 13007KT 23/18 A2999 RMK A01 T02280177  RH  073%=      5-min Rain = 0
KMC4 141051Z 13006KT 23/18 A2999 RMK A01 T02270177  RH  073%=      5-min Rain = 0
KMC4 141052Z 13008KT 23/18 A2999 RMK A01 T02280177  RH  073%=      5-min Rain = 0
KMC4 141053Z 13007KT 23/18 A2998 RMK A01 T02270177  RH  073%=      5-min Rain = 0
KMC4 141054Z 13008KT 23/18 A2998 RMK A01 T02270176  RH  073%=      5-min Rain = 0
KMC4 141055Z 13007KT 23/18 A2998 RMK A01 T02270176  RH  073%=      5-min Rain = 0
KMC4 141056Z 13006KT 23/18 A2998 RMK A01 T02270177  RH  073%=      5-min Rain = 0
KMC4 141057Z 13006KT 23/18 A2998 RMK A01 T02270177  RH  073%=      5-min Rain = 0
KMC4 141058Z 13008KT 23/18 A2998 RMK A01 T02270177  RH  073%=      5-min Rain = 0
KMC4 141059Z 13008KT 23/18 A2998 RMK A01 T02270177  RH  073%=      5-min Rain = 0
KMC4 141100Z 13008KT 23/18 A2998 RMK A01 T02270177  RH  073%=      5-min Rain = 0
KMC4 141101Z 14010KT 23/18 A2998 RMK A01 T02270177  RH  073%=      5-min Rain = 0
KMC4 141102Z 14010KT 23/18 A2998 RMK A01 T02270177  RH  073%=      5-min Rain = 0
KMC4 141103Z 14010KT 23/18 A2998 RMK A01 T02270177  RH  073%=      5-min Rain = 0
KMC4 141104Z 14011KT 23/18 A2998 RMK A01 T02270177  RH  073%=      5-min Rain = 0
KMC4 141105Z 14010KT 23/18 A2998 RMK A01 T02270176  RH  073%=      5-min Rain = 0
KMC4 141106Z 14012KT 23/18 A2998 RMK A01 T02270176  RH  073%=      5-min Rain = 0
KMC4 141107Z 14010KT 23/18 A2998 RMK A01 T02270176  RH  073%=      5-min Rain = 0
KMC4 141108Z 15011KT 23/18 A2998 RMK A01 T02260176  RH  073%=      5-min Rain = 0
KMC4 141109Z 14011KT 23/18 A2998 RMK A01 T02260177  RH  073%=      5-min Rain = 0
KMC4 141110Z 15011KT 23/18 A2998 RMK A01 T02260177  RH  073%=      5-min Rain = 0
KMC4 141111Z 15011KT 23/18 A2998 RMK A01 T02260176  RH  073%=      5-min Rain = 0
KMC4 141112Z 15009KT 23/18 A2998 RMK A01 T02260176  RH  073%=      5-min Rain = 0
KMC4 141113Z 15011KT 23/18 A2998 RMK A01 T02260176  RH  073%=      5-min Rain = 0
KMC4 141114Z 15011KT 23/18 A2998 RMK A01 T02260176  RH  073%=      5-min Rain = 0
KMC4 141115Z 14010KT 23/18 A2998 RMK A01 T02260177  RH  073%=      5-min Rain = 0
KMC4 141116Z 15010KT 23/18 A2998 RMK A01 T02260176  RH  073%=      5-min Rain = 0
KMC4 141117Z 15010KT 23/18 A2998 RMK A01 T02260176  RH  073%=      5-min Rain = 0
KMC4 141118Z 14011KT 23/18 A2998 RMK A01 T02260176  RH  073%=      5-min Rain = 0
KMC4 141119Z 14010KT 23/18 A2998 RMK A01 T02260176  RH  073%=      5-min Rain = 0
KMC4 141120Z 14009KT 23/18 A2998 RMK A01 T02260176  RH  074%=      5-min Rain = 0
KMC4 141121Z 14010KT 23/18 A2999 RMK A01 T02260177  RH  074%=      5-min Rain = 0
KMC4 141122Z 14010KT 23/18 A2999 RMK A01 T02260177  RH  074%=      5-min Rain = 0
KMC4 141123Z 13010KT 23/18 A2999 RMK A01 T02250176  RH  074%=      5-min Rain = 0
KMC4 141124Z 13009KT 23/18 A2999 RMK A01 T02250176  RH  074%=      5-min Rain = 0
KMC4 141125Z 13009KT 23/18 A2999 RMK A01 T02250176  RH  074%=      5-min Rain = 0
KMC4 141126Z 13009KT 23/18 A2999 RMK A01 T02250176  RH  074%=      5-min Rain = 0
KMC4 141127Z 13007KT 23/18 A2999 RMK A01 T02250176  RH  074%=      5-min Rain = 0
KMC4 141128Z 13008KT 23/18 A2999 RMK A01 T02250176  RH  074%=      5-min Rain = 0
KMC4 141129Z 13008KT 22/18 A30 RMK A01 T02240176  RH  074%=      5-min Rain = 0
KMC4 141130Z 13008KT 22/18 A30 RMK A01 T02240176  RH  074%=      5-min Rain = 0
KMC4 141131Z 14007KT 22/18 A30 RMK A01 T02240176  RH  074%=      5-min Rain = 0
KMC4 141132Z 14008KT 22/18 A30 RMK A01 T02240176  RH  074%=      5-min Rain = 0
KMC4 141133Z 14011KT 22/18 A30 RMK A01 T02240177  RH  075%=      5-min Rain = 0
KMC4 141134Z 14011KT 22/18 A2999 RMK A01 T02230176  RH  075%=      5-min Rain = 0
KMC4 141135Z 14012KT 22/18 A2999 RMK A01 T02230176  RH  075%=      5-min Rain = 0
KMC4 141136Z 14011KT 22/18 A2999 RMK A01 T02230176  RH  075%=      5-min Rain = 0
KMC4 141137Z 15009KT 22/18 A2999 RMK A01 T02230176  RH  075%=      5-min Rain = 0
KMC4 141138Z 14012KT 22/18 A2999 RMK A01 T02220176  RH  075%=      5-min Rain = 0
KMC4 141139Z 14011KT 22/18 A2999 RMK A01 T02220176  RH  075%=      5-min Rain = 0
KMC4 141140Z 15011KT 22/18 A2999 RMK A01 T02220176  RH  075%=      5-min Rain = 0
KMC4 141141Z 14010KT 22/18 A2999 RMK A01 T02220176  RH  075%=      5-min Rain = 0
KMC4 141142Z 15012KT 22/18 A2999 RMK A01 T02210176  RH  075%=      5-min Rain = 0
KMC4 141143Z 15013KT 22/18 A2999 RMK A01 T02220176  RH  075%=      5-min Rain = 0
KMC4 141144Z 15014KT 22/18 A2999 RMK A01 T02220176  RH  075%=      5-min Rain = 0
KMC4 141145Z 15014KT 22/18 A2999 RMK A01 T02210176  RH  075%=      5-min Rain = 0
KMC4 141146Z 15013KT 22/18 A2999 RMK A01 T02220176  RH  075%=      5-min Rain = 0
KMC4 141147Z 15012KT 22/18 A2999 RMK A01 T02220176  RH  075%=      5-min Rain = 0
KMC4 141148Z 15011KT 22/18 A2999 RMK A01 T02220176  RH  075%=      5-min Rain = 0
KMC4 141149Z 15013KT 22/18 A2998 RMK A01 T02210176  RH  076%=      5-min Rain = 0
KMC4 141150Z 15014KT 22/18 A2998 RMK A01 T02210176  RH  076%=      5-min Rain = 0
KMC4 141151Z 15012KT 22/18 A2998 RMK A01 T02210176  RH  075%=      5-min Rain = 0
KMC4 141152Z 15010KT 22/18 A2998 RMK A01 T02210176  RH  076%=      5-min Rain = 0
KMC4 141153Z 15012KT 22/18 A2998 RMK A01 T02210176  RH  076%=      5-min Rain = 0
KMC4 141154Z 14011KT 22/18 A2998 RMK A01 T02200176  RH  076%=      5-min Rain = 0
KMC4 141155Z 14012KT 22/18 A2998 RMK A01 T02200176  RH  076%=      5-min Rain = 0
KMC4 141156Z 14012KT 22/18 A2998 RMK A01 T02200176  RH  076%=      5-min Rain = 0
KMC4 141157Z 14011KT 22/18 A2998 RMK A01 T02200176  RH  076%=      5-min Rain = 0
KMC4 141158Z 14011KT 22/18 A2998 RMK A01 T02190176  RH  076%=      5-min Rain = 0
KMC4 141159Z 13011KT 22/18 A2998 RMK A01 T02190176  RH  076%=      5-min Rain = 0
KMC4 141200Z 13010KT 22/18 A2998 RMK A01 T02190175  RH  076%=      5-min Rain = 0
KMC4 141201Z 14011KT 22/18 A2998 RMK A01 T02190175  RH  076%=      5-min Rain = 0
KMC4 141202Z 14010KT 22/18 A2998 RMK A01 T02190175  RH  076%=      5-min Rain = 0
KMC4 141203Z 14012KT 22/18 A2998 RMK A01 T02190175  RH  076%=      5-min Rain = 0
KMC4 141204Z 13011KT 22/18 A2998 RMK A01 T02190175  RH  076%=      5-min Rain = 0
KMC4 141205Z 14011KT 22/18 A2998 RMK A01 T02190175  RH  076%=      5-min Rain = 0
KMC4 141206Z 13013KT 22/18 A2998 RMK A01 T02190175  RH  076%=      5-min Rain = 0
KMC4 141207Z 14013KT 22/18 A2998 RMK A01 T02190175  RH  076%=      5-min Rain = 0
KMC4 141208Z 14011KT 22/18 A2998 RMK A01 T02190175  RH  076%=      5-min Rain = 0
KMC4 141209Z 14011G16KT 22/18 A2998 RMK A01 T02190175  RH  076%=      5-min Rain = 0
KMC4 141210Z 14013KT 22/18 A2998 RMK A01 T02180175  RH  076%=      5-min Rain = 0
KMC4 141211Z 14014KT 22/18 A2998 RMK A01 T02180175  RH  076%=      5-min Rain = 0
KMC4 141212Z 14014KT 22/17 A2998 RMK A01 T02180174  RH  076%=      5-min Rain = 0
KMC4 141213Z 14013KT 22/17 A2998 RMK A01 T02190174  RH  076%=      5-min Rain = 0
KMC4 141214Z 14012KT 22/18 A2998 RMK A01 T02190175  RH  076%=      5-min Rain = 0
KMC4 141215Z 14011KT 22/18 A2998 RMK A01 T02190175  RH  076%=      5-min Rain = 0
KMC4 141216Z 14011KT 22/18 A2998 RMK A01 T02190175  RH  076%=      5-min Rain = 0
KMC4 141217Z 14012KT 22/18 A2998 RMK A01 T02190175  RH  076%=      5-min Rain = 0
KMC4 141218Z 14011KT 22/18 A2998 RMK A01 T02190175  RH  076%=      5-min Rain = 0
KMC4 141219Z 13010KT 22/18 A2998 RMK A01 T02190175  RH  076%=      5-min Rain = 0
KMC4 141220Z 13010KT 22/18 A2998 RMK A01 T02190175  RH  076%=      5-min Rain = 0
KMC4 141221Z 13013KT 22/18 A2998 RMK A01 T02190175  RH  076%=      5-min Rain = 0
KMC4 141222Z 13011KT 22/17 A2998 RMK A01 T02190174  RH  076%=      5-min Rain = 0
KMC4 141223Z 13009KT 22/17 A2998 RMK A01 T02190174  RH  076%=      5-min Rain = 0
KMC4 141224Z 13010KT 22/17 A2998 RMK A01 T02190174  RH  076%=      5-min Rain = 0
KMC4 141225Z 13011KT 22/17 A2998 RMK A01 T02190174  RH  076%=      5-min Rain = 0
KMC4 141226Z 13009KT 22/18 A2998 RMK A01 T02190175  RH  076%=      5-min Rain = 0
KMC4 141227Z 13009KT 22/18 A2998 RMK A01 T02190175  RH  076%=      5-min Rain = 0
KMC4 141228Z 13011KT 22/18 A2998 RMK A01 T02190175  RH  076%=      5-min Rain = 0
KMC4 141229Z 13012KT 22/18 A2998 RMK A01 T02190175  RH  076%=      5-min Rain = 0
KMC4 141230Z 13012KT 22/18 A2998 RMK A01 T02190175  RH  076%=      5-min Rain = 0
KMC4 141231Z 13012KT 22/18 A2997 RMK A01 T02190175  RH  076%=      5-min Rain = 0
KMC4 141232Z 12012KT 22/18 A2997 RMK A01 T02190175  RH  076%=      5-min Rain = 0
KMC4 141233Z 12013KT 22/18 A2997 RMK A01 T02190175  RH  076%=      5-min Rain = 0
KMC4 141234Z 12011KT 22/18 A2997 RMK A01 T02190175  RH  076%=      5-min Rain = 0
KMC4 141235Z 12013G18KT 22/18 A2997 RMK A01 T02190175  RH  076%=      5-min Rain = 0
KMC4 141236Z 12013KT 22/17 A2997 RMK A01 T02190174  RH  075%=      5-min Rain = 0
KMC4 141237Z 12012G17KT 22/17 A2997 RMK A01 T02200174  RH  075%=      5-min Rain = 0
KMC4 141238Z 12012KT 22/17 A2997 RMK A01 T02200174  RH  075%=      5-min Rain = 0
KMC4 141239Z 12013KT 22/17 A2997 RMK A01 T02200174  RH  075%=      5-min Rain = 0
KMC4 141240Z 12011KT 22/17 A2997 RMK A01 T02200174  RH  075%=      5-min Rain = 0
KMC4 141241Z 12013KT 22/17 A2997 RMK A01 T02200174  RH  075%=      5-min Rain = 0
KMC4 141242Z 12012KT 22/17 A2997 RMK A01 T02200174  RH  075%=      5-min Rain = 0
KMC4 141243Z 12014KT 22/18 A2997 RMK A01 T02200175  RH  075%=      5-min Rain = 0
KMC4 141244Z 13014KT 22/17 A2996 RMK A01 T02200174  RH  075%=      5-min Rain = 0
KMC4 141245Z 12013KT 22/17 A2996 RMK A01 T02200174  RH  075%=      5-min Rain = 0
KMC4 141246Z 13013G18KT 22/17 A2996 RMK A01 T02200174  RH  075%=      5-min Rain = 0
KMC4 141247Z 12014KT 22/17 A2996 RMK A01 T02210174  RH  075%=      5-min Rain = 0
KMC4 141248Z 13014KT 22/17 A2996 RMK A01 T02230174  RH  074%=      5-min Rain = 0
KMC4 141249Z 13016KT 22/17 A2996 RMK A01 T02230174  RH  074%=      5-min Rain = 0
KMC4 141250Z 13014KT 22/17 A2996 RMK A01 T02240174  RH  073%=      5-min Rain = 0
KMC4 141251Z 13016G21KT 23/17 A2996 RMK A01 T02250174  RH  073%=      5-min Rain = 0
KMC4 141252Z 13015G20KT 23/17 A2996 RMK A01 T02250174  RH  073%=      5-min Rain = 0
KMC4 141253Z 13015KT 23/17 A2996 RMK A01 T02260174  RH  073%=      5-min Rain = 0
KMC4 141254Z 13013KT 23/17 A2996 RMK A01 T02260174  RH  073%=      5-min Rain = 0
KMC4 141255Z 13012KT 23/18 A2996 RMK A01 T02260175  RH  073%=      5-min Rain = 0
KMC4 141256Z 14013KT 23/18 A2996 RMK A01 T02260175  RH  073%=      5-min Rain = 0
KMC4 141257Z 13014KT 23/18 A2996 RMK A01 T02270175  RH  072%=      5-min Rain = 0
KMC4 141258Z 13015KT 23/18 A2996 RMK A01 T02280175  RH  072%=      5-min Rain = 0
KMC4 141259Z 13017KT 23/18 A2996 RMK A01 T02280175  RH  072%=      5-min Rain = 0
KMC4 141300Z 14018KT 23/18 A2996 RMK A01 T02280175  RH  072%=      5-min Rain = 0
KMC4 141301Z 13018KT 23/17 A2996 RMK A01 T02280174  RH  071%=      5-min Rain = 0
KMC4 141302Z 14015G22KT 23/17 A2996 RMK A01 T02290174  RH  071%=      5-min Rain = 0
KMC4 141303Z 14015G20KT 23/18 A2996 RMK A01 T02290175  RH  071%=      5-min Rain = 0
KMC4 141304Z 13017KT 23/18 A2996 RMK A01 T02300175  RH  071%=      5-min Rain = 0
KMC4 141305Z 14019KT 23/17 A2996 RMK A01 T02300174  RH  071%=      5-min Rain = 0
KMC4 141306Z 14020KT 23/17 A2996 RMK A01 T02300174  RH  071%=      5-min Rain = 0
KMC4 141307Z 14020KT 23/17 A2996 RMK A01 T02300174  RH  071%=      5-min Rain = 0
KMC4 141308Z 14020KT 23/17 A2995 RMK A01 T02290174  RH  071%=      5-min Rain = 0
KMC4 141309Z 14019KT 23/17 A2995 RMK A01 T02280174  RH  071%=      5-min Rain = 0
KMC4 141310Z 14016G23KT 23/17 A2995 RMK A01 T02280174  RH  072%=      5-min Rain = 0
KMC4 141311Z 14018KT 23/18 A2995 RMK A01 T02280175  RH  072%=      5-min Rain = 0
KMC4 141312Z 14017KT 23/18 A2995 RMK A01 T02280175  RH  072%=      5-min Rain = 0
KMC4 141313Z 15018KT 23/18 A2995 RMK A01 T02280175  RH  072%=      5-min Rain = 0
KMC4 141314Z 14019KT 23/17 A2995 RMK A01 T02280174  RH  072%=      5-min Rain = 0
KMC4 141315Z 14019KT 23/17 A2995 RMK A01 T02270174  RH  072%=      5-min Rain = 0
KMC4 141316Z 14015KT 23/17 A2995 RMK A01 T02280174  RH  072%=      5-min Rain = 0
KMC4 141317Z 14017KT 23/17 A2995 RMK A01 T02280174  RH  072%=      5-min Rain = 0
KMC4 141318Z 14020KT 23/17 A2995 RMK A01 T02270174  RH  072%=      5-min Rain = 0
KMC4 141319Z 14020KT 23/17 A2995 RMK A01 T02280173  RH  071%=      5-min Rain = 0
KMC4 141320Z 14018KT 23/17 A2995 RMK A01 T02280174  RH  071%=      5-min Rain = 0
KMC4 141321Z 14017KT 23/17 A2995 RMK A01 T02280174  RH  071%=      5-min Rain = 0
KMC4 141322Z 14017KT 23/17 A2996 RMK A01 T02290174  RH  071%=      5-min Rain = 0
KMC4 141323Z 14017KT 23/17 A2996 RMK A01 T02290174  RH  071%=      5-min Rain = 0
KMC4 141324Z 14015KT 23/17 A2996 RMK A01 T02290174  RH  071%=      5-min Rain = 0
KMC4 141325Z 14017KT 23/17 A2996 RMK A01 T02290174  RH  071%=      5-min Rain = 0
KMC4 141326Z 13015KT 23/17 A2996 RMK A01 T02290174  RH  071%=      5-min Rain = 0
KMC4 141327Z 13014KT 23/17 A2996 RMK A01 T02290174  RH  071%=      5-min Rain = 0
KMC4 141328Z 13011KT 23/18 A2997 RMK A01 T02300175  RH  071%=      5-min Rain = 0
KMC4 141329Z 13012G18KT 23/18 A2997 RMK A01 T02300176  RH  071%=      5-min Rain = 0
KMC4 141330Z 13017KT 23/17 A2997 RMK A01 T02310174  RH  071%=      5-min Rain = 0
KMC4 141331Z 13015KT 23/17 A2997 RMK A01 T02310174  RH  070%=      5-min Rain = 0
KMC4 141332Z 14015KT 23/17 A2997 RMK A01 T02310174  RH  070%=      5-min Rain = 0
KMC4 141333Z 13014KT 23/17 A2997 RMK A01 T02310174  RH  070%=      5-min Rain = 0
KMC4 141334Z 13014KT 23/17 A2997 RMK A01 T02310174  RH  070%=      5-min Rain = 0
KMC4 141335Z 13015KT 23/17 A2996 RMK A01 T02310174  RH  070%=      5-min Rain = 0
KMC4 141336Z 13015KT 23/18 A2997 RMK A01 T02310175  RH  070%=      5-min Rain = 0
KMC4 141337Z 14013KT 23/17 A2996 RMK A01 T02320174  RH  070%=      5-min Rain = 0
KMC4 141338Z 13014KT 23/18 A2997 RMK A01 T02320175  RH  070%=      5-min Rain = 0
KMC4 141339Z 13016KT 23/17 A2997 RMK A01 T02320174  RH  070%=      5-min Rain = 0
KMC4 141340Z 14016KT 23/17 A2997 RMK A01 T02330174  RH  070%=      5-min Rain = 0
KMC4 141341Z 14018KT 23/17 A2996 RMK A01 T02330174  RH  069%=      5-min Rain = 0
KMC4 141342Z 14017KT 23/17 A2996 RMK A01 T02340174  RH  069%=      5-min Rain = 0
KMC4 141343Z 14016G21KT 23/18 A2997 RMK A01 T02340175  RH  069%=      5-min Rain = 0
KMC4 141344Z 14019KT 24/17 A2996 RMK A01 T02350174  RH  068%=      5-min Rain = 0
KMC4 141345Z 14016KT 24/17 A2997 RMK A01 T02360174  RH  068%=      5-min Rain = 0
KMC4 141346Z 15016KT 24/18 A2997 RMK A01 T02370175  RH  068%=      5-min Rain = 0
KMC4 141347Z 14014KT 24/18 A2997 RMK A01 T02380175  RH  068%=      5-min Rain = 0
KMC4 141348Z 14016G22KT 24/18 A2997 RMK A01 T02390175  RH  067%=      5-min Rain = 0
KMC4 141349Z 14018KT 24/17 A2997 RMK A01 T02410174  RH  066%=      5-min Rain = 0
KMC4 141350Z 15015KT 24/17 A2997 RMK A01 T02410174  RH  066%=      5-min Rain = 0
KMC4 141351Z 15018G24KT 24/18 A2997 RMK A01 T02420175  RH  066%=      5-min Rain = 0
KMC4 141352Z 15019KT 24/17 A2997 RMK A01 T02420174  RH  066%=      5-min Rain = 0
KMC4 141353Z 14017KT 24/17 A2997 RMK A01 T02410174  RH  066%=      5-min Rain = 0
KMC4 141354Z 14019KT 24/17 A2997 RMK A01 T02400174  RH  066%=      5-min Rain = 0
KMC4 141355Z 15021G26KT 24/17 A2997 RMK A01 T02400173  RH  066%=      5-min Rain = 0
KMC4 141356Z 14022KT 24/17 A2997 RMK A01 T02390173  RH  067%=      5-min Rain = 0
KMC4 141357Z 15021KT 24/17 A2997 RMK A01 T02380172  RH  066%=      5-min Rain = 0
KMC4 141358Z 15020KT 24/17 A2997 RMK A01 T02380173  RH  067%=      5-min Rain = 0
KMC4 141359Z 15017KT 24/17 A2997 RMK A01 T02380172  RH  067%=      5-min Rain = 0
KMC4 141400Z 14017KT 24/17 A2998 RMK A01 T02380173  RH  067%=      5-min Rain = 0
KMC4 141401Z 15016KT 24/17 A2998 RMK A01 T02400174  RH  067%=      5-min Rain = 0
KMC4 141402Z 14019KT 24/17 A2998 RMK A01 T02410173  RH  066%=      5-min Rain = 0
KMC4 141403Z 14016KT 24/17 A2998 RMK A01 T02410173  RH  066%=      5-min Rain = 0
KMC4 141404Z 14018KT 24/17 A2998 RMK A01 T02420173  RH  066%=      5-min Rain = 0
KMC4 141405Z 14017KT 24/17 A2998 RMK A01 T02420173  RH  066%=      5-min Rain = 0
KMC4 141406Z 15016G21KT 24/17 A2998 RMK A01 T02420173  RH  065%=      5-min Rain = 0
KMC4 141407Z 16017KT 24/17 A2998 RMK A01 T02430174  RH  065%=      5-min Rain = 0
KMC4 141408Z 15018KT 24/17 A2998 RMK A01 T02430173  RH  065%=      5-min Rain = 0
KMC4 141409Z 16019KT 24/17 A2998 RMK A01 T02430173  RH  065%=      5-min Rain = 0
KMC4 141410Z 16019KT 24/17 A2999 RMK A01 T02430172  RH  065%=      5-min Rain = 0
KMC4 141411Z 17018KT 24/17 A2999 RMK A01 T02430173  RH  065%=      5-min Rain = 0
KMC4 141412Z 16016KT 24/17 A30 RMK A01 T02430173  RH  065%=      5-min Rain = 0
KMC4 141413Z 17018KT 24/17 A30 RMK A01 T02430174  RH  065%=      5-min Rain = 0
KMC4 141414Z 16018KT 24/17 A30 RMK A01 T02430174  RH  065%=      5-min Rain = 0
KMC4 141415Z 16017G22KT 24/17 A30 RMK A01 T02430174  RH  065%=      5-min Rain = 0
KMC4 141416Z 15020KT 24/17 A2999 RMK A01 T02430173  RH  065%=      5-min Rain = 0
KMC4 141417Z 15018KT 24/17 A2999 RMK A01 T02420173  RH  065%=      5-min Rain = 0
KMC4 141418Z 15015KT 24/17 A2999 RMK A01 T02420173  RH  065%=      5-min Rain = 0
KMC4 141419Z 15015KT 24/17 A2999 RMK A01 T02420173  RH  066%=      5-min Rain = 0
KMC4 141420Z 16015KT 24/17 A30 RMK A01 T02420174  RH  066%=      5-min Rain = 0
KMC4 141421Z 16015G20KT 24/17 A30 RMK A01 T02430174  RH  065%=      5-min Rain = 0
KMC4 141422Z 16017KT 24/17 A30 RMK A01 T02430173  RH  065%=      5-min Rain = 0
KMC4 141423Z 16016KT 24/17 A30 RMK A01 T02430173  RH  065%=      5-min Rain = 0
KMC4 141424Z 15016KT 24/17 A30 RMK A01 T02420173  RH  065%=      5-min Rain = 0
KMC4 141425Z 15016G22KT 24/17 A30 RMK A01 T02420173  RH  065%=      5-min Rain = 0
KMC4 141426Z 16014KT 24/17 A30 RMK A01 T02420174  RH  066%=      5-min Rain = 0
KMC4 141427Z 16012KT 24/17 A30 RMK A01 T02430174  RH  066%=      5-min Rain = 0
KMC4 141428Z 15016G23KT 24/18 A30 RMK A01 T02430175  RH  066%=      5-min Rain = 0
KMC4 141429Z 15016KT 24/17 A30 RMK A01 T02440174  RH  065%=      5-min Rain = 0
KMC4 141430Z 15016KT 24/17 A30 RMK A01 T02440174  RH  065%=      5-min Rain = 0
KMC4 141431Z 15013KT 24/17 A30 RMK A01 T02440174  RH  065%=      5-min Rain = 0
KMC4 141432Z 15014G19KT 25/18 A30 RMK A01 T02450175  RH  065%=      5-min Rain = 0
KMC4 141433Z 15014KT 25/17 A30 RMK A01 T02460174  RH  064%=      5-min Rain = 0
KMC4 141434Z 15011KT 25/18 A30 RMK A01 T02460175  RH  065%=      5-min Rain = 0
KMC4 141435Z 15014KT 25/18 A30 RMK A01 T02460176  RH  065%=      5-min Rain = 0
KMC4 141436Z 15014KT 25/18 A30 RMK A01 T02460175  RH  064%=      5-min Rain = 0
KMC4 141437Z 15012G17KT 25/18 A30 RMK A01 T02460175  RH  065%=      5-min Rain = 0
KMC4 141438Z 16013KT 25/18 A30 RMK A01 T02460175  RH  064%=      5-min Rain = 0
KMC4 141439Z 16015KT 25/18 A30 RMK A01 T02480175  RH  064%=      5-min Rain = 0
KMC4 141440Z 15016KT 25/17 A30 RMK A01 T02490174  RH  063%=      5-min Rain = 0
KMC4 141441Z 16015KT 25/17 A30 RMK A01 T02490174  RH  063%=      5-min Rain = 0
KMC4 141442Z 15016KT 25/18 A30 RMK A01 T02500175  RH  063%=      5-min Rain = 0
KMC4 141443Z 15016KT 25/18 A30 RMK A01 T02490175  RH  063%=      5-min Rain = 0
KMC4 141444Z 16014KT 25/18 A30 RMK A01 T02490175  RH  063%=      5-min Rain = 0
KMC4 141445Z 16016G21KT 25/18 A2999 RMK A01 T02480175  RH  064%=      5-min Rain = 0
KMC4 141446Z 15018KT 25/17 A2999 RMK A01 T02470173  RH  064%=      5-min Rain = 0
KMC4 141447Z 16014KT 25/17 A2999 RMK A01 T02450173  RH  064%=      5-min Rain = 0
KMC4 141448Z 15014KT 25/18 A2999 RMK A01 T02470175  RH  064%=      5-min Rain = 0
KMC4 141449Z 15015KT 25/18 A2999 RMK A01 T02500175  RH  063%=      5-min Rain = 0
KMC4 141450Z 14015KT 25/18 A2999 RMK A01 T02510175  RH  063%=      5-min Rain = 0
KMC4 141451Z 15016KT 25/18 A2999 RMK A01 T02530176  RH  062%=      5-min Rain = 0
KMC4 141452Z 14016KT 25/18 A2999 RMK A01 T02540175  RH  062%=      5-min Rain = 0
KMC4 141453Z 15016KT 26/18 A2999 RMK A01 T02550175  RH  061%=      5-min Rain = 0
KMC4 141454Z 14015KT 26/18 A2999 RMK A01 T02550175  RH  061%=      5-min Rain = 0
KMC4 141455Z 14016KT 26/18 A2999 RMK A01 T02560176  RH  061%=      5-min Rain = 0
KMC4 141456Z 14015KT 26/18 A2999 RMK A01 T02570175  RH  061%=      5-min Rain = 0
KMC4 141457Z 13018KT 26/18 A2999 RMK A01 T02570175  RH  060%=      5-min Rain = 0
KMC4 141458Z 15016KT 26/18 A2999 RMK A01 T02580175  RH  060%=      5-min Rain = 0
KMC4 141459Z 14017KT 26/18 A2999 RMK A01 T02570175  RH  060%=      5-min Rain = 0
KMC4 141500Z 15014KT 26/18 A2999 RMK A01 T02560175  RH  061%=      5-min Rain = 0
KMC4 141501Z 14018KT 26/18 A2999 RMK A01 T02550175  RH  061%=      5-min Rain = 0
KMC4 141502Z 14018KT 26/18 A2999 RMK A01 T02550175  RH  061%=      5-min Rain = 0
KMC4 141503Z 15017KT 25/18 A2999 RMK A01 T02540175  RH  062%=      5-min Rain = 0
KMC4 141504Z 15018KT 25/17 A2999 RMK A01 T02520174  RH  062%=      5-min Rain = 0
KMC4 141505Z 15019KT 25/18 A2999 RMK A01 T02520175  RH  062%=      5-min Rain = 0
KMC4 141506Z 15017KT 25/18 A30 RMK A01 T02520175  RH  062%=      5-min Rain = 0
KMC4 141507Z 14018KT 25/18 A2999 RMK A01 T02530175  RH  062%=      5-min Rain = 0
KMC4 141508Z 15014KT 25/18 A30 RMK A01 T02530175  RH  062%=      5-min Rain = 0
KMC4 141509Z 15011KT 25/18 A30 RMK A01 T02540177  RH  062%=      5-min Rain = 0
KMC4 141510Z 15015G20KT 26/18 A30 RMK A01 T02570177  RH  061%=      5-min Rain = 0
KMC4 141511Z 14015KT 26/18 A30 RMK A01 T02570176  RH  061%=      5-min Rain = 0
KMC4 141512Z 14015KT 26/18 A30 RMK A01 T02580176  RH  061%=      5-min Rain = 0
KMC4 141513Z 14016G22KT 26/18 A30 RMK A01 T02590177  RH  061%=      5-min Rain = 0
KMC4 141514Z 15018KT 26/18 A30 RMK A01 T02600176  RH  060%=      5-min Rain = 0
KMC4 141515Z 15017KT 26/18 A30 RMK A01 T02610175  RH  059%=      5-min Rain = 0
KMC4 141516Z 14016G21KT 26/18 A30 RMK A01 T02610176  RH  059%=      5-min Rain = 0
KMC4 141517Z 15019KT 26/18 A30 RMK A01 T02620176  RH  059%=      5-min Rain = 0
KMC4 141518Z 16017KT 26/18 A30 RMK A01 T02630176  RH  059%=      5-min Rain = 0
KMC4 141519Z 16016G21KT 26/18 A30 RMK A01 T02630176  RH  059%=      5-min Rain = 0
KMC4 141520Z 16015G20KT 26/18 A30 RMK A01 T02620176  RH  059%=      5-min Rain = 0
KMC4 141521Z 15017KT 26/18 A2999 RMK A01 T02620176  RH  059%=      5-min Rain = 0
KMC4 141522Z 15015KT 26/18 A2999 RMK A01 T02630177  RH  059%=      5-min Rain = 0
KMC4 141523Z 15016KT 26/18 A2999 RMK A01 T02640177  RH  059%=      5-min Rain = 0
KMC4 141524Z 16016KT 27/18 A2999 RMK A01 T02660177  RH  058%=      5-min Rain = 0
KMC4 141525Z 16017KT 27/18 A2999 RMK A01 T02660176  RH  058%=      5-min Rain = 0
KMC4 141526Z 14014G19KT 27/18 A2999 RMK A01 T02670178  RH  058%=      5-min Rain = 0
KMC4 141527Z 15018KT 27/18 A2999 RMK A01 T02700178  RH  057%=      5-min Rain = 0
KMC4 141528Z 16017KT 27/18 A2999 RMK A01 T02700176  RH  056%=      5-min Rain = 0
KMC4 141529Z 15015KT 27/18 A2999 RMK A01 T02690177  RH  057%=      5-min Rain = 0
KMC4 141530Z 14015KT 27/18 A2999 RMK A01 T02690177  RH  057%=      5-min Rain = 0
KMC4 141531Z 14015G20KT 27/18 A2999 RMK A01 T02690177  RH  057%=      5-min Rain = 0
KMC4 141532Z 14017G22KT 27/18 A2999 RMK A01 T02710177  RH  056%=      5-min Rain = 0
KMC4 141533Z 16013KT 27/18 A2999 RMK A01 T02720177  RH  056%=      5-min Rain = 0
KMC4 141534Z 15017G22KT 27/18 A2999 RMK A01 T02720177  RH  056%=      5-min Rain = 0
KMC4 141535Z 15017KT 27/18 A2999 RMK A01 T02720177  RH  056%=      5-min Rain = 0
KMC4 141536Z 15015KT 27/18 A2999 RMK A01 T02720177  RH  056%=      5-min Rain = 0
KMC4 141537Z 15015KT 27/18 A2999 RMK A01 T02710177  RH  056%=      5-min Rain = 0
KMC4 141538Z 16016KT 27/18 A2999 RMK A01 T02710177  RH  057%=      5-min Rain = 0
KMC4 141539Z 14015KT 27/18 A2999 RMK A01 T02710178  RH  057%=      5-min Rain = 0
KMC4 141540Z 16014KT 27/18 A2999 RMK A01 T02720180  RH  057%=      5-min Rain = 0
KMC4 141541Z 16018KT 27/18 A2999 RMK A01 T02740179  RH  056%=      5-min Rain = 0
KMC4 141542Z 16016KT 27/18 A2999 RMK A01 T02740178  RH  056%=      5-min Rain = 0
KMC4 141543Z 14017KT 27/18 A2999 RMK A01 T02730178  RH  056%=      5-min Rain = 0
KMC4 141544Z 14017KT 27/18 A2999 RMK A01 T02730177  RH  056%=      5-min Rain = 0
KMC4 141545Z 15015KT 27/18 A2999 RMK A01 T02730177  RH  056%=      5-min Rain = 0
KMC4 141546Z 14016G21KT 27/18 A2999 RMK A01 T02740177  RH  055%=      5-min Rain = 0
KMC4 141547Z 14015G20KT 28/18 A2999 RMK A01 T02750177  RH  055%=      5-min Rain = 0
KMC4 141548Z 14014G19KT 28/18 A2999 RMK A01 T02750179  RH  056%=      5-min Rain = 0
KMC4 141549Z 15013KT 28/18 A2999 RMK A01 T02750178  RH  055%=      5-min Rain = 0
KMC4 141550Z 14013KT 28/18 A2999 RMK A01 T02760178  RH  055%=      5-min Rain = 0
KMC4 141551Z 14013KT 28/18 A2999 RMK A01 T02770179  RH  055%=      5-min Rain = 0
KMC4 141552Z 16012KT 28/18 A2999 RMK A01 T02790180  RH  055%=      5-min Rain = 0
KMC4 141553Z 15016KT 28/18 A2999 RMK A01 T02810179  RH  054%=      5-min Rain = 0
KMC4 141554Z 14015KT 28/18 A2999 RMK A01 T02810178  RH  054%=      5-min Rain = 0
KMC4 141555Z 15013KT 28/18 A2999 RMK A01 T02810178  RH  054%=      5-min Rain = 0
KMC4 141556Z 15014KT 28/18 A2999 RMK A01 T02830179  RH  053%=      5-min Rain = 0
KMC4 141557Z 14013KT 28/18 A2999 RMK A01 T02840180  RH  053%=      5-min Rain = 0
KMC4 141558Z 14015KT 28/18 A2999 RMK A01 T02840179  RH  053%=      5-min Rain = 0
KMC4 141559Z 14016KT 28/18 A2999 RMK A01 T02840179  RH  053%=      5-min Rain = 0
KMC4 141600Z 14014KT 28/18 A2999 RMK A01 T02840179  RH  053%=      5-min Rain = 0
KMC4 141601Z 14011KT 28/18 A2999 RMK A01 T02840181  RH  053%=      5-min Rain = 0
KMC4 141602Z 14017G22KT 28/18 A2999 RMK A01 T02840179  RH  053%=      5-min Rain = 0
KMC4 141603Z 15016KT 29/18 A2999 RMK A01 T02860178  RH  052%=      5-min Rain = 0
KMC4 141604Z 15018KT 29/18 A2999 RMK A01 T02870178  RH  052%=      5-min Rain = 0
KMC4 141605Z 15015KT 29/18 A2999 RMK A01 T02860177  RH  051%=      5-min Rain = 0
KMC4 141606Z 16011KT 29/18 A2999 RMK A01 T02860178  RH  052%=      5-min Rain = 0
KMC4 141607Z 15014KT 29/18 A2999 RMK A01 T02870179  RH  052%=      5-min Rain = 0
KMC4 141608Z 16014KT 29/18 A2999 RMK A01 T02880178  RH  052%=      5-min Rain = 0
KMC4 141609Z 16012KT 29/18 A2999 RMK A01 T02880180  RH  052%=      5-min Rain = 0
KMC4 141610Z 18012KT 29/18 A2999 RMK A01 T02900180  RH  052%=      5-min Rain = 0
KMC4 141611Z 17014G19KT 29/18 A2999 RMK A01 T02900180  RH  051%=      5-min Rain = 0
KMC4 141612Z 17015KT 29/18 A2999 RMK A01 T02910180  RH  051%=      5-min Rain = 0
KMC4 141613Z 17015KT 29/18 A2998 RMK A01 T02900179  RH  051%=      5-min Rain = 0
KMC4 141614Z 15014KT 29/18 A2998 RMK A01 T02890181  RH  052%=      5-min Rain = 0
KMC4 141615Z 15013KT 29/18 A2998 RMK A01 T02920181  RH  051%=      5-min Rain = 0
KMC4 141616Z 15015KT 30/18 A2998 RMK A01 T02950182  RH  051%=      5-min Rain = 0
KMC4 141617Z 16014KT 30/18 A2998 RMK A01 T02960181  RH  050%=      5-min Rain = 0
KMC4 141618Z 16014KT 30/18 A2998 RMK A01 T02960182  RH  050%=      5-min Rain = 0
KMC4 141619Z 16014KT 30/18 A2998 RMK A01 T02950181  RH  050%=      5-min Rain = 0
KMC4 141620Z 16014KT 30/18 A2998 RMK A01 T02950183  RH  051%=      5-min Rain = 0
KMC4 141621Z 14015KT 30/18 A2998 RMK A01 T02950183  RH  051%=      5-min Rain = 0
KMC4 141622Z 14015KT 30/18 A2998 RMK A01 T02950181  RH  050%=      5-min Rain = 0
KMC4 141623Z 14016KT 30/18 A2998 RMK A01 T02960181  RH  050%=      5-min Rain = 0
KMC4 141624Z 17014G20KT 30/18 A2998 RMK A01 T02970181  RH  050%=      5-min Rain = 0
KMC4 141625Z 16016KT 30/18 A2998 RMK A01 T02970178  RH  049%=      5-min Rain = 0
KMC4 141626Z 17018KT 30/18 A2998 RMK A01 T02970181  RH  050%=      5-min Rain = 0
KMC4 141627Z 16014KT 30/18 A2998 RMK A01 T02970179  RH  049%=      5-min Rain = 0
KMC4 141628Z 16014KT 30/18 A2998 RMK A01 T02970180  RH  049%=      5-min Rain = 0
KMC4 141629Z 17015G20KT 30/18 A2998 RMK A01 T02970180  RH  049%=      5-min Rain = 0
KMC4 141630Z 18015KT 30/18 A2998 RMK A01 T02980180  RH  049%=      5-min Rain = 0
KMC4 141631Z 16012KT 30/18 A2998 RMK A01 T02990181  RH  049%=      5-min Rain = 0
KMC4 141632Z 16013KT 30/18 A2998 RMK A01 T02990183  RH  050%=      5-min Rain = 0
KMC4 141633Z 15013KT 30/18 A2998 RMK A01 T03010184  RH  049%=      5-min Rain = 0
KMC4 141634Z 16014KT 30/18 A2998 RMK A01 T03010181  RH  049%=      5-min Rain = 0
KMC4 141635Z 17014KT 30/18 A2998 RMK A01 T03010179  RH  048%=      5-min Rain = 0
KMC4 141636Z 17011G16KT 30/18 A2998 RMK A01 T03010180  RH  049%=      5-min Rain = 0
KMC4 141637Z 16017KT 30/18 A2998 RMK A01 T03020180  RH  048%=      5-min Rain = 0
KMC4 141638Z 15017KT 30/18 A2998 RMK A01 T03020177  RH  047%=      5-min Rain = 0
KMC4 141639Z 15015KT 30/18 A2998 RMK A01 T03030178  RH  047%=      5-min Rain = 0
KMC4 141640Z 15016KT 30/18 A2998 RMK A01 T03030180  RH  048%=      5-min Rain = 0
KMC4 141641Z 15017KT 31/18 A2998 RMK A01 T03050179  RH  047%=      5-min Rain = 0
KMC4 141642Z 16017G22KT 31/18 A2998 RMK A01 T03060179  RH  047%=      5-min Rain = 0
KMC4 141643Z 17016KT 31/18 A2998 RMK A01 T03050179  RH  047%=      5-min Rain = 0
KMC4 141644Z 16015KT 30/18 A2998 RMK A01 T03030180  RH  048%=      5-min Rain = 0
KMC4 141645Z 16014KT 30/18 A2998 RMK A01 T03010179  RH  048%=      5-min Rain = 0
KMC4 141646Z 16018KT 30/18 A2998 RMK A01 T03020179  RH  048%=      5-min Rain = 0
KMC4 141647Z 15017KT 30/18 A2998 RMK A01 T03040178  RH  047%=      5-min Rain = 0
KMC4 141648Z 15017KT 30/18 A2998 RMK A01 T03030178  RH  047%=      5-min Rain = 0
KMC4 141649Z 15017KT 31/18 A2998 RMK A01 T03050179  RH  047%=      5-min Rain = 0
KMC4 141650Z 16015KT 31/18 A2998 RMK A01 T03060178  RH  046%=      5-min Rain = 0
KMC4 141651Z 17013KT 31/18 A2998 RMK A01 T03070179  RH  046%=      5-min Rain = 0
KMC4 141652Z 16011KT 31/18 A2998 RMK A01 T03060181  RH  047%=      5-min Rain = 0
KMC4 141653Z 16014KT 31/18 A2998 RMK A01 T03070180  RH  047%=      5-min Rain = 0
KMC4 141654Z 15017KT 31/18 A2998 RMK A01 T03090179  RH  046%=      5-min Rain = 0
KMC4 141655Z 16018G23KT 31/18 A2998 RMK A01 T03080177  RH  046%=      5-min Rain = 0
KMC4 141656Z 15014KT 31/18 A2998 RMK A01 T03060178  RH  046%=      5-min Rain = 0
KMC4 141657Z 16016KT 31/18 A2998 RMK A01 T03070178  RH  046%=      5-min Rain = 0
KMC4 141658Z 17014KT 31/18 A2998 RMK A01 T03080178  RH  046%=      5-min Rain = 0
KMC4 141659Z 17015KT 31/18 A2998 RMK A01 T03070177  RH  046%=      5-min Rain = 0
KMC4 141700Z 17017KT 31/18 A2998 RMK A01 T03070176  RH  046%=      5-min Rain = 0
KMC4 141701Z 17016KT 31/18 A2998 RMK A01 T03060176  RH  046%=      5-min Rain = 0
KMC4 141702Z 17016KT 31/18 A2998 RMK A01 T03060177  RH  046%=      5-min Rain = 0
KMC4 141703Z 16016KT 31/18 A2998 RMK A01 T03080179  RH  046%=      5-min Rain = 0
KMC4 141704Z 17014KT 31/18 A2998 RMK A01 T03100178  RH  045%=      5-min Rain = 0
KMC4 141705Z 15017KT 31/18 A2998 RMK A01 T03090178  RH  045%=      5-min Rain = 0
KMC4 141706Z 15016G21KT 31/18 A2998 RMK A01 T03100176  RH  045%=      5-min Rain = 0
KMC4 141707Z 15016KT 31/18 A2998 RMK A01 T03100177  RH  045%=      5-min Rain = 0
KMC4 141708Z 15017KT 31/18 A2998 RMK A01 T03100179  RH  045%=      5-min Rain = 0
KMC4 141709Z 15016KT 31/18 A2998 RMK A01 T03100178  RH  045%=      5-min Rain = 0
KMC4 141710Z 16017KT 31/18 A2998 RMK A01 T03090177  RH  045%=      5-min Rain = 0
KMC4 141711Z 15017KT 31/18 A2998 RMK A01 T03100178  RH  045%=      5-min Rain = 0
KMC4 141712Z 16016KT 31/18 A2998 RMK A01 T03120178  RH  045%=      5-min Rain = 0
KMC4 141713Z 16015KT 31/18 A2998 RMK A01 T03140179  RH  045%=      5-min Rain = 0
KMC4 141714Z 15019KT 32/18 A2997 RMK A01 T03170176  RH  043%=      5-min Rain = 0
KMC4 141715Z 16016G22KT 32/17 A2998 RMK A01 T03150174  RH  043%=      5-min Rain = 0
KMC4 141716Z 16017KT 31/17 A2997 RMK A01 T03140174  RH  043%=      5-min Rain = 0
KMC4 141717Z 16015KT 31/18 A2997 RMK A01 T03140175  RH  044%=      5-min Rain = 0
KMC4 141718Z 16013KT 31/18 A2997 RMK A01 T03130178  RH  045%=      5-min Rain = 0
KMC4 141719Z 17014KT 31/18 A2997 RMK A01 T03140178  RH  044%=      5-min Rain = 0
KMC4 141720Z 17014KT 32/18 A2997 RMK A01 T03170179  RH  044%=      5-min Rain = 0
KMC4 141721Z 17015KT 32/18 A2997 RMK A01 T03170177  RH  043%=      5-min Rain = 0
KMC4 141722Z 17015KT 32/18 A2997 RMK A01 T03160178  RH  044%=      5-min Rain = 0
KMC4 141723Z 16015G20KT 32/18 A2997 RMK A01 T03160179  RH  044%=      5-min Rain = 0
KMC4 141724Z 15017KT 32/18 A2997 RMK A01 T03170177  RH  043%=      5-min Rain = 0
KMC4 141725Z 16018G23KT 32/18 A2997 RMK A01 T03180177  RH  043%=      5-min Rain = 0
KMC4 141726Z 16014G20KT 32/18 A2997 RMK A01 T03180182  RH  044%=      5-min Rain = 0
KMC4 141727Z 15018KT 32/18 A2997 RMK A01 T03190179  RH  043%=      5-min Rain = 0
KMC4 141728Z 16014G20KT 32/18 A2997 RMK A01 T03180179  RH  044%=      5-min Rain = 0
KMC4 141729Z 18011KT 32/18 A2997 RMK A01 T03180180  RH  044%=      5-min Rain = 0
KMC4 141730Z 18013KT 32/18 A2997 RMK A01 T03190175  RH  042%=      5-min Rain = 0
KMC4 141731Z 17012KT 32/18 A2997 RMK A01 T03170177  RH  043%=      5-min Rain = 0
KMC4 141732Z 16013KT 32/18 A2997 RMK A01 T03170180  RH  044%=      5-min Rain = 0
KMC4 141733Z 15016KT 32/18 A2997 RMK A01 T03190182  RH  044%=      5-min Rain = 0
KMC4 141734Z 14017KT 32/18 A2996 RMK A01 T03210179  RH  043%=      5-min Rain = 0
KMC4 141735Z 17014G22KT 32/18 A2997 RMK A01 T03220181  RH  043%=      5-min Rain = 0
KMC4 141736Z 17011KT 32/18 A2997 RMK A01 T03240177  RH  042%=      5-min Rain = 0
KMC4 141737Z 17014KT 32/18 A2997 RMK A01 T03220180  RH  043%=      5-min Rain = 0
KMC4 141738Z 18012KT 32/18 A2997 RMK A01 T03210180  RH  043%=      5-min Rain = 0
KMC4 141739Z 16015KT 32/18 A2997 RMK A01 T03220180  RH  043%=      5-min Rain = 0
KMC4 141740Z 18014KT 32/18 A2997 RMK A01 T03220180  RH  043%=      5-min Rain = 0
KMC4 141741Z 16016G22KT 32/18 A2997 RMK A01 T03220181  RH  043%=      5-min Rain = 0
KMC4 141742Z 16016KT 32/18 A2997 RMK A01 T03220176  RH  042%=      5-min Rain = 0
KMC4 141743Z 17014KT 32/18 A2997 RMK A01 T03200177  RH  043%=      5-min Rain = 0
KMC4 141744Z 17014KT 32/18 A2997 RMK A01 T03200177  RH  043%=      5-min Rain = 0
KMC4 141745Z 17013KT 32/18 A2996 RMK A01 T03170178  RH  044%=      5-min Rain = 0
KMC4 141746Z 16013G18KT 32/18 A2996 RMK A01 T03180182  RH  044%=      5-min Rain = 0
KMC4 141747Z 15016KT 32/18 A2996 RMK A01 T03220179  RH  043%=      5-min Rain = 0
KMC4 141748Z 15018KT 32/18 A2996 RMK A01 T03230179  RH  042%=      5-min Rain = 0
KMC4 141749Z 15017KT 32/18 A2996 RMK A01 T03240178  RH  042%=      5-min Rain = 0
KMC4 141750Z 16016KT 32/18 A2996 RMK A01 T03230178  RH  042%=      5-min Rain = 0
KMC4 141751Z 16016KT 32/18 A2996 RMK A01 T03230181  RH  043%=      5-min Rain = 0
KMC4 141752Z 16014KT 32/18 A2996 RMK A01 T03230181  RH  043%=      5-min Rain = 0
KMC4 141753Z 15017KT 32/18 A2996 RMK A01 T03230181  RH  043%=      5-min Rain = 0
KMC4 141754Z 17017KT 33/18 A2996 RMK A01 T03250177  RH  041%=      5-min Rain = 0
KMC4 141755Z 17015KT 32/18 A2996 RMK A01 T03230176  RH  042%=      5-min Rain = 0
KMC4 141756Z 16017G22KT 32/18 A2996 RMK A01 T03230175  RH  041%=      5-min Rain = 0
KMC4 141757Z 14015KT 32/18 A2996 RMK A01 T03230180  RH  043%=      5-min Rain = 0
KMC4 141758Z 14013KT 33/18 A2996 RMK A01 T03270182  RH  042%=      5-min Rain = 0
KMC4 141759Z 15018KT 33/18 A2996 RMK A01 T03270180  RH  042%=      5-min Rain = 0
KMC4 141800Z 16017KT 33/18 A2996 RMK A01 T03280178  RH  041%=      5-min Rain = 0
KMC4 141801Z 15019KT 33/18 A2996 RMK A01 T03260176  RH  041%=      5-min Rain = 0
KMC4 141802Z 17016KT 33/18 A2996 RMK A01 T03250177  RH  041%=      5-min Rain = 0
KMC4 141803Z 16015KT 33/18 A2996 RMK A01 T03260178  RH  041%=      5-min Rain = 0
KMC4 141804Z 16014G20KT 33/18 A2996 RMK A01 T03260178  RH  041%=      5-min Rain = 0
KMC4 141805Z 16017KT 33/18 A2995 RMK A01 T03270178  RH  041%=      5-min Rain = 0
KMC4 141806Z 16014KT 33/18 A2996 RMK A01 T03290177  RH  041%=      5-min Rain = 0
KMC4 141807Z 15018KT 33/18 A2996 RMK A01 T03280178  RH  041%=      5-min Rain = 0
KMC4 141808Z 16016KT 33/18 A2996 RMK A01 T03270175  RH  041%=      5-min Rain = 0
KMC4 141809Z 16017KT 33/18 A2996 RMK A01 T03270177  RH  041%=      5-min Rain = 0
KMC4 141810Z 15017KT 33/18 A2995 RMK A01 T03260178  RH  041%=      5-min Rain = 0
KMC4 141811Z 15015KT 33/18 A2996 RMK A01 T03260178  RH  042%=      5-min Rain = 0
KMC4 141812Z 15016KT 33/18 A2995 RMK A01 T03280176  RH  041%=      5-min Rain = 0
KMC4 141813Z 15014G19KT 33/18 A2995 RMK A01 T03300177  RH  040%=      5-min Rain = 0
KMC4 141814Z 14016KT 33/18 A2995 RMK A01 T03310176  RH  040%=      5-min Rain = 0
KMC4 141815Z 16016KT 33/18 A2995 RMK A01 T03300178  RH  041%=      5-min Rain = 0
KMC4 141816Z 16016KT 33/18 A2995 RMK A01 T03280177  RH  041%=      5-min Rain = 0
KMC4 141817Z 16018KT 33/18 A2995 RMK A01 T03270177  RH  041%=      5-min Rain = 0
KMC4 141818Z 16016KT 33/18 A2995 RMK A01 T03260177  RH  041%=      5-min Rain = 0
KMC4 141819Z 16015KT 33/18 A2995 RMK A01 T03260180  RH  042%=      5-min Rain = 0
KMC4 141820Z 15013KT 33/18 A2995 RMK A01 T03290181  RH  041%=      5-min Rain = 0
KMC4 141821Z 16017KT 33/18 A2995 RMK A01 T03330181  RH  041%=      5-min Rain = 0
KMC4 141822Z 15019KT 33/18 A2995 RMK A01 T03340179  RH  040%=      5-min Rain = 0
KMC4 141823Z 16017KT 33/18 A2995 RMK A01 T03320177  RH  040%=      5-min Rain = 0
KMC4 141824Z 17014KT 33/18 A2995 RMK A01 T03300176  RH  040%=      5-min Rain = 0
KMC4 141825Z 17012KT 33/18 A2995 RMK A01 T03270180  RH  042%=      5-min Rain = 0
KMC4 141826Z 17016G21KT 33/18 A2995 RMK A01 T03300181  RH  041%=      5-min Rain = 0
KMC4 141827Z 15019KT 33/18 A2994 RMK A01 T03320180  RH  040%=      5-min Rain = 0
KMC4 141828Z 16017KT 33/18 A2994 RMK A01 T03330180  RH  040%=      5-min Rain = 0
KMC4 141829Z 14019KT 33/18 A2994 RMK A01 T03300179  RH  041%=      5-min Rain = 0
KMC4 141830Z 15018KT 33/18 A2994 RMK A01 T03300179  RH  041%=      5-min Rain = 0
KMC4 141831Z 16014KT 33/18 A2994 RMK A01 T03300179  RH  041%=      5-min Rain = 0
KMC4 141832Z 18013KT 33/18 A2994 RMK A01 T03310180  RH  041%=      5-min Rain = 0
KMC4 141833Z 17015G20KT 33/18 A2994 RMK A01 T03340179  RH  040%=      5-min Rain = 0
KMC4 141834Z 15015KT 33/18 A2994 RMK A01 T03330180  RH  040%=      5-min Rain = 0
KMC4 141835Z 16011KT 33/18 A2994 RMK A01 T03330181  RH  041%=      5-min Rain = 0
KMC4 141836Z 16014KT 34/18 A2994 RMK A01 T03360182  RH  040%=      5-min Rain = 0
KMC4 141837Z 19015G20KT 34/18 A2994 RMK A01 T03380178  RH  039%=      5-min Rain = 0
KMC4 141838Z 17012KT 34/18 A2994 RMK A01 T03400180  RH  039%=      5-min Rain = 0
KMC4 141839Z 17013KT 34/18 A2994 RMK A01 T03420182  RH  039%=      5-min Rain = 0
KMC4 141840Z 16014KT 34/18 A2994 RMK A01 T03420179  RH  038%=      5-min Rain = 0
KMC4 141841Z 15015KT 34/18 A2994 RMK A01 T03380178  RH  039%=      5-min Rain = 0
KMC4 141842Z 15015G21KT 34/18 A2994 RMK A01 T03360177  RH  039%=      5-min Rain = 0
KMC4 141843Z 15020KT 34/18 A2993 RMK A01 T03360177  RH  039%=      5-min Rain = 0
KMC4 141844Z 14016KT 34/18 A2994 RMK A01 T03350177  RH  039%=      5-min Rain = 0
KMC4 141845Z 16013KT 34/18 A2994 RMK A01 T03350180  RH  040%=      5-min Rain = 0
KMC4 141846Z 17011G16KT 34/18 A2994 RMK A01 T03390182  RH  039%=      5-min Rain = 0
KMC4 141847Z 19013KT 34/18 A2994 RMK A01 T03410180  RH  038%=      5-min Rain = 0
KMC4 141848Z 19016KT 34/18 A2994 RMK A01 T03420177  RH  038%=      5-min Rain = 0
KMC4 141849Z 19015KT 34/18 A2994 RMK A01 T03400176  RH  038%=      5-min Rain = 0
KMC4 141850Z 17015KT 34/18 A2993 RMK A01 T03370178  RH  039%=      5-min Rain = 0
KMC4 141851Z 16017KT 34/18 A2993 RMK A01 T03350179  RH  040%=      5-min Rain = 0
KMC4 141852Z 16015KT 34/18 A2993 RMK A01 T03350180  RH  040%=      5-min Rain = 0
KMC4 141853Z 15017KT 34/18 A2993 RMK A01 T03380180  RH  039%=      5-min Rain = 0
KMC4 141854Z 15017KT 34/18 A2993 RMK A01 T03410178  RH  038%=      5-min Rain = 0
KMC4 141855Z 16014KT 34/18 A2993 RMK A01 T03390178  RH  038%=      5-min Rain = 0
KMC4 141856Z 15012KT 34/18 A2993 RMK A01 T03380179  RH  039%=      5-min Rain = 0
KMC4 141857Z 15015KT 34/18 A2993 RMK A01 T03380180  RH  039%=      5-min Rain = 0
KMC4 141858Z 16016KT 34/18 A2993 RMK A01 T03410179  RH  038%=      5-min Rain = 0
KMC4 141859Z 15018KT 34/18 A2993 RMK A01 T03410177  RH  038%=      5-min Rain = 0
KMC4 141900Z 16014G20KT 34/18 A2993 RMK A01 T03400179  RH  039%=      5-min Rain = 0
KMC4 141901Z 16013KT 34/18 A2993 RMK A01 T03420182  RH  039%=      5-min Rain = 0
KMC4 141902Z 16018G24KT 34/18 A2993 RMK A01 T03430180  RH  038%=      5-min Rain = 0
KMC4 141903Z 15015G20KT 34/18 A2993 RMK A01 T03410180  RH  038%=      5-min Rain = 0
KMC4 141904Z 16017G23KT 34/18 A2993 RMK A01 T03430178  RH  038%=      5-min Rain = 0
KMC4 141905Z 19011KT 34/18 A2993 RMK A01 T03420177  RH  038%=      5-min Rain = 0
KMC4 141906Z 19009KT 34/18 A2993 RMK A01 T03420177  RH  038%=      5-min Rain = 0
KMC4 141907Z 16014G21KT 34/18 A2992 RMK A01 T03420182  RH  039%=      5-min Rain = 0
KMC4 141908Z 17016G21KT 34/18 A2993 RMK A01 T03440181  RH  038%=      5-min Rain = 0
KMC4 141909Z 16016G21KT 34/18 A2992 RMK A01 T03440179  RH  038%=      5-min Rain = 0
KMC4 141910Z 18012KT 34/18 A2992 RMK A01 T03400178  RH  038%=      5-min Rain = 0
KMC4 141911Z 17009KT 34/18 A2992 RMK A01 T03380177  RH  039%=      5-min Rain = 0
KMC4 141912Z 16015KT 34/18 A2992 RMK A01 T03390178  RH  038%=      5-min Rain = 0
KMC4 141913Z 17015KT 34/18 A2992 RMK A01 T03400178  RH  038%=      5-min Rain = 0
KMC4 141914Z 18014KT 34/18 A2992 RMK A01 T03420181  RH  039%=      5-min Rain = 0
KMC4 141915Z 16016KT 34/18 A2992 RMK A01 T03430180  RH  038%=      5-min Rain = 0
KMC4 141916Z 16013KT 34/18 A2992 RMK A01 T03410179  RH  038%=      5-min Rain = 0
KMC4 141917Z 18014G20KT 34/18 A2992 RMK A01 T03400179  RH  039%=      5-min Rain = 0
KMC4 141918Z 18016KT 34/18 A2992 RMK A01 T03390177  RH  038%=      5-min Rain = 0
KMC4 141919Z 18013KT 34/18 A2992 RMK A01 T03370176  RH  038%=      5-min Rain = 0
KMC4 141920Z 16014KT 34/18 A2992 RMK A01 T03380178  RH  039%=      5-min Rain = 0
KMC4 141921Z 16012KT 34/18 A2992 RMK A01 T03380178  RH  039%=      5-min Rain = 0
KMC4 141922Z 15014KT 34/18 A2992 RMK A01 T03370179  RH  039%=      5-min Rain = 0
KMC4 141923Z 16013KT 34/18 A2992 RMK A01 T03390181  RH  039%=      5-min Rain = 0
KMC4 141924Z 16019KT 34/18 A2992 RMK A01 T03410180  RH  039%=      5-min Rain = 0
KMC4 141925Z 17019KT 34/18 A2991 RMK A01 T03390179  RH  039%=      5-min Rain = 0
KMC4 141926Z 16017KT 34/18 A2991 RMK A01 T03370179  RH  039%=      5-min Rain = 0
KMC4 141927Z 14016KT 34/18 A2991 RMK A01 T03390178  RH  038%=      5-min Rain = 0
KMC4 141928Z 15018G25KT 34/18 A2991 RMK A01 T03420180  RH  038%=      5-min Rain = 0
KMC4 141929Z 16019KT 35/18 A2991 RMK A01 T03450180  RH  038%=      5-min Rain = 0
KMC4 141930Z 16018KT 34/18 A2991 RMK A01 T03420180  RH  038%=      5-min Rain = 0
KMC4 141931Z 15017KT 34/18 A2991 RMK A01 T03400179  RH  038%=      5-min Rain = 0
KMC4 141932Z 16017KT 34/18 A2991 RMK A01 T03410181  RH  039%=      5-min Rain = 0
KMC4 141933Z 16018KT 34/18 A2991 RMK A01 T03420179  RH  038%=      5-min Rain = 0
KMC4 141934Z 15017KT 34/18 A2991 RMK A01 T03400179  RH  038%=      5-min Rain = 0
KMC4 141935Z 15015KT 34/18 A2991 RMK A01 T03420182  RH  039%=      5-min Rain = 0
KMC4 141936Z 17017KT 34/18 A2991 RMK A01 T03440182  RH  038%=      5-min Rain = 0
KMC4 141937Z 16012KT 34/18 A2991 RMK A01 T03440184  RH  039%=      5-min Rain = 0
KMC4 141938Z 17016KT 35/18 A2991 RMK A01 T03450183  RH  038%=      5-min Rain = 0
KMC4 141939Z 16015KT 35/18 A2991 RMK A01 T03450183  RH  038%=      5-min Rain = 0
KMC4 141940Z 15014KT 35/18 A2991 RMK A01 T03460182  RH  038%=      5-min Rain = 0
KMC4 141941Z 17013KT 35/18 A2991 RMK A01 T03480182  RH  038%=      5-min Rain = 0
KMC4 141942Z 15017KT 35/18 A2991 RMK A01 T03480183  RH  038%=      5-min Rain = 0
KMC4 141943Z 15014KT 35/18 A299 RMK A01 T03460181  RH  038%=      5-min Rain = 0
KMC4 141944Z 16013KT 34/18 A299 RMK A01 T03430182  RH  039%=      5-min Rain = 0
KMC4 141945Z 16015KT 34/18 A299 RMK A01 T03440183  RH  039%=      5-min Rain = 0
KMC4 141946Z 17019KT 35/18 A299 RMK A01 T03460184  RH  038%=      5-min Rain = 0
KMC4 141947Z 18015G20KT 35/18 A299 RMK A01 T03450184  RH  039%=      5-min Rain = 0
KMC4 141948Z 16017KT 34/18 A299 RMK A01 T03440183  RH  039%=      5-min Rain = 0
KMC4 141949Z 14018KT 35/18 A299 RMK A01 T03450182  RH  038%=      5-min Rain = 0
KMC4 141950Z 14016G21KT 34/18 A299 RMK A01 T03440181  RH  038%=      5-min Rain = 0
KMC4 141951Z 16019KT 35/18 A299 RMK A01 T03450183  RH  038%=      5-min Rain = 0
KMC4 141952Z 16019G24KT 35/18 A299 RMK A01 T03450184  RH  039%=      5-min Rain = 0
KMC4 141953Z 17014G20KT 35/18 A299 RMK A01 T03460184  RH  038%=      5-min Rain = 0
KMC4 141954Z 16018G23KT 35/18 A299 RMK A01 T03460183  RH  038%=      5-min Rain = 0
KMC4 141955Z 15020KT 35/18 A299 RMK A01 T03460179  RH  037%=      5-min Rain = 0
KMC4 141956Z 16018KT 34/18 A299 RMK A01 T03440179  RH  038%=      5-min Rain = 0
KMC4 141957Z 15019G26KT 34/18 A299 RMK A01 T03440181  RH  038%=      5-min Rain = 0
KMC4 141958Z 18016KT 35/18 A299 RMK A01 T03460181  RH  038%=      5-min Rain = 0
KMC4 141959Z 17010KT 35/18 A299 RMK A01 T03490181  RH  037%=      5-min Rain = 0
KMC4 142000Z 15017G25KT 35/18 A299 RMK A01 T03520184  RH  037%=      5-min Rain = 0
KMC4 142001Z 15019KT 35/18 A299 RMK A01 T03520181  RH  036%=      5-min Rain = 0
KMC4 142002Z 15016G21KT 35/18 A299 RMK A01 T03500181  RH  037%=      5-min Rain = 0
KMC4 142003Z 15020KT 35/18 A299 RMK A01 T03480181  RH  037%=      5-min Rain = 0
KMC4 142004Z 15018KT 35/18 A299 RMK A01 T03470180  RH  037%=      5-min Rain = 0
KMC4 142005Z 16019KT 35/18 A299 RMK A01 T03470181  RH  038%=      5-min Rain = 0
KMC4 142006Z 17015G20KT 35/18 A299 RMK A01 T03470180  RH  037%=      5-min Rain = 0
KMC4 142007Z 16014KT 35/18 A299 RMK A01 T03470180  RH  037%=      5-min Rain = 0
KMC4 142008Z 16015KT 35/18 A299 RMK A01 T03460179  RH  037%=      5-min Rain = 0
KMC4 142009Z 15018KT 35/18 A299 RMK A01 T03450182  RH  038%=      5-min Rain = 0
KMC4 142010Z 14016KT 35/18 A299 RMK A01 T03460181  RH  038%=      5-min Rain = 0
KMC4 142011Z 15017G23KT 35/18 A2989 RMK A01 T03470182  RH  038%=      5-min Rain = 0
KMC4 142012Z 16020G26KT 35/18 A2989 RMK A01 T03480179  RH  037%=      5-min Rain = 0
KMC4 142013Z 17017G22KT 35/18 A2989 RMK A01 T03480179  RH  037%=      5-min Rain = 0
KMC4 142014Z 18015KT 35/18 A299 RMK A01 T03480181  RH  037%=      5-min Rain = 0
KMC4 142015Z 18014G19KT 35/18 A299 RMK A01 T03500180  RH  037%=      5-min Rain = 0
KMC4 142016Z 18016G23KT 35/18 A2989 RMK A01 T03510180  RH  036%=      5-min Rain = 0
KMC4 142017Z 18018KT 35/18 A2989 RMK A01 T03500181  RH  037%=      5-min Rain = 0
KMC4 142018Z 16017KT 35/18 A2989 RMK A01 T03490182  RH  037%=      5-min Rain = 0
KMC4 142019Z 16017KT 35/18 A2989 RMK A01 T03490180  RH  037%=      5-min Rain = 0
KMC4 142020Z 16015G20KT 35/18 A2989 RMK A01 T03470183  RH  038%=      5-min Rain = 0
KMC4 142021Z 15017KT 35/18 A2989 RMK A01 T03470183  RH  038%=      5-min Rain = 0
KMC4 142022Z 16018KT 35/18 A2989 RMK A01 T03480183  RH  038%=      5-min Rain = 0
KMC4 142023Z 16014KT 35/18 A2989 RMK A01 T03480182  RH  038%=      5-min Rain = 0
KMC4 142024Z 15015G20KT 35/19 A2989 RMK A01 T03460185  RH  039%=      5-min Rain = 0
KMC4 142025Z 15019KT 35/18 A2989 RMK A01 T03480183  RH  038%=      5-min Rain = 0
KMC4 142026Z 18014G20KT 35/19 A2989 RMK A01 T03490185  RH  038%=      5-min Rain = 0
KMC4 142027Z 17015KT 35/18 A2989 RMK A01 T03500184  RH  038%=      5-min Rain = 0
KMC4 142028Z 16017KT 35/18 A2989 RMK A01 T03500184  RH  037%=      5-min Rain = 0
KMC4 142029Z 16016KT 35/18 A2989 RMK A01 T03490181  RH  037%=      5-min Rain = 0
KMC4 142030Z 16015KT 35/18 A2989 RMK A01 T03480181  RH  037%=      5-min Rain = 0
KMC4 142031Z 16018KT 35/18 A2989 RMK A01 T03490183  RH  038%=      5-min Rain = 0
KMC4 142032Z 15017KT 35/18 A2988 RMK A01 T03500182  RH  037%=      5-min Rain = 0
KMC4 142033Z 16015KT 35/18 A2988 RMK A01 T03490183  RH  038%=      5-min Rain = 0
KMC4 142034Z 16016G24KT 35/18 A2988 RMK A01 T03500184  RH  038%=      5-min Rain = 0
KMC4 142035Z 16019KT 35/18 A2988 RMK A01 T03520184  RH  037%=      5-min Rain = 0
KMC4 142036Z 15017G22KT 35/18 A2988 RMK A01 T03520183  RH  037%=      5-min Rain = 0
KMC4 142037Z 15019KT 35/18 A2988 RMK A01 T03520182  RH  037%=      5-min Rain = 0
KMC4 142038Z 16019G25KT 35/18 A2988 RMK A01 T03510183  RH  037%=      5-min Rain = 0
KMC4 142039Z 17017KT 35/18 A2988 RMK A01 T03520182  RH  037%=      5-min Rain = 0
KMC4 142040Z 18019G24KT 35/18 A2988 RMK A01 T03520182  RH  037%=      5-min Rain = 0
KMC4 142041Z 17017KT 35/18 A2988 RMK A01 T03510184  RH  037%=      5-min Rain = 0
KMC4 142042Z 17013KT 35/18 A2988 RMK A01 T03500184  RH  037%=      5-min Rain = 0
KMC4 142043Z 17015G24KT 35/18 A2988 RMK A01 T03490184  RH  038%=      5-min Rain = 0
KMC4 142044Z 15016KT 35/19 A2988 RMK A01 T03480185  RH  038%=      5-min Rain = 0
KMC4 142045Z 17018KT 35/18 A2988 RMK A01 T03480184  RH  038%=      5-min Rain = 0
KMC4 142046Z 18017KT 35/18 A2988 RMK A01 T03450182  RH  038%=      5-min Rain = 0
KMC4 142047Z 17014KT 34/18 A2988 RMK A01 T03400180  RH  039%=      5-min Rain = 0
KMC4 142048Z 16015KT 34/18 A2988 RMK A01 T03380182  RH  040%=      5-min Rain = 0
KMC4 142049Z 16017KT 34/18 A2988 RMK A01 T03410183  RH  039%=      5-min Rain = 0
KMC4 142050Z 16016KT 34/18 A2988 RMK A01 T03430182  RH  039%=      5-min Rain = 0
KMC4 142051Z 16017KT 34/18 A2988 RMK A01 T03440182  RH  038%=      5-min Rain = 0
KMC4 142052Z 16015KT 35/19 A2988 RMK A01 T03470186  RH  039%=      5-min Rain = 0
KMC4 142053Z 15020KT 35/18 A2988 RMK A01 T03490184  RH  038%=      5-min Rain = 0
KMC4 142054Z 16019KT 35/18 A2988 RMK A01 T03460181  RH  038%=      5-min Rain = 0
KMC4 142055Z 15019KT 34/18 A2988 RMK A01 T03420181  RH  038%=      5-min Rain = 0
KMC4 142056Z 17015KT 34/18 A2988 RMK A01 T03400182  RH  039%=      5-min Rain = 0
KMC4 142057Z 16017G23KT 34/18 A2988 RMK A01 T03400182  RH  039%=      5-min Rain = 0
KMC4 142058Z 16017G22KT 34/18 A2988 RMK A01 T03390180  RH  039%=      5-min Rain = 0
KMC4 142059Z 15018KT 34/18 A2988 RMK A01 T03380181  RH  039%=      5-min Rain = 0
KMC4 142100Z 16017KT 34/18 A2988 RMK A01 T03390181  RH  039%=      5-min Rain = 0
KMC4 142101Z 16016KT 34/18 A2988 RMK A01 T03370181  RH  040%=      5-min Rain = 0
KMC4 142102Z 16020KT 34/18 A2988 RMK A01 T03360181  RH  040%=      5-min Rain = 0
KMC4 142103Z 16020KT 34/18 A2988 RMK A01 T03360181  RH  040%=      5-min Rain = 0
KMC4 142104Z 15017G22KT 34/18 A2988 RMK A01 T03350181  RH  040%=      5-min Rain = 0
KMC4 142105Z 14016KT 34/18 A2988 RMK A01 T03350182  RH  040%=      5-min Rain = 0
KMC4 142106Z 15020KT 34/18 A2987 RMK A01 T03360181  RH  040%=      5-min Rain = 0
KMC4 142107Z 15018KT 34/18 A2988 RMK A01 T03350182  RH  040%=      5-min Rain = 0
KMC4 142108Z 16018KT 34/18 A2987 RMK A01 T03350182  RH  041%=      5-min Rain = 0
KMC4 142109Z 16016KT 33/18 A2988 RMK A01 T03340183  RH  041%=      5-min Rain = 0
KMC4 142110Z 15015KT 33/18 A2987 RMK A01 T03330183  RH  041%=      5-min Rain = 0
KMC4 142111Z 16019KT 33/18 A2987 RMK A01 T03330183  RH  041%=      5-min Rain = 0
KMC4 142112Z 15018KT 33/18 A2987 RMK A01 T03330183  RH  041%=      5-min Rain = 0
KMC4 142113Z 16017KT 33/18 A2987 RMK A01 T03330183  RH  041%=      5-min Rain = 0
KMC4 142114Z 15021KT 33/18 A2987 RMK A01 T03340183  RH  041%=      5-min Rain = 0
KMC4 142115Z 16019KT 33/18 A2987 RMK A01 T03330183  RH  041%=      5-min Rain = 0
KMC4 142116Z 15019KT 33/18 A2987 RMK A01 T03320183  RH  041%=      5-min Rain = 0
KMC4 142117Z 14020KT 33/18 A2987 RMK A01 T03320183  RH  041%=      5-min Rain = 0
KMC4 142118Z 14021KT 33/18 A2987 RMK A01 T03320183  RH  041%=      5-min Rain = 0
KMC4 142119Z 14018KT 33/18 A2987 RMK A01 T03320183  RH  041%=      5-min Rain = 0
KMC4 142120Z 14021KT 33/18 A2987 RMK A01 T03310183  RH  041%=      5-min Rain = 0
KMC4 142121Z 15020KT 33/18 A2987 RMK A01 T03320184  RH  042%=      5-min Rain = 0
KMC4 142122Z 15021KT 33/18 A2987 RMK A01 T03310183  RH  042%=      5-min Rain = 0
KMC4 142123Z 15019KT 33/18 A2987 RMK A01 T03310183  RH  042%=      5-min Rain = 0
KMC4 142124Z 15015KT 33/18 A2987 RMK A01 T03300184  RH  042%=      5-min Rain = 0
KMC4 142125Z 15016G21KT 33/18 A2987 RMK A01 T03310184  RH  042%=      5-min Rain = 0
KMC4 142126Z 15018KT 33/18 A2987 RMK A01 T03320184  RH  041%=      5-min Rain = 0
KMC4 142127Z 15019KT 33/18 A2987 RMK A01 T03320183  RH  041%=      5-min Rain = 0
KMC4 142128Z 15019G24KT 33/18 A2986 RMK A01 T03320183  RH  041%=      5-min Rain = 0
KMC4 142129Z 15019KT 33/18 A2986 RMK A01 T03310183  RH  042%=      5-min Rain = 0
KMC4 142130Z 16017KT 33/18 A2986 RMK A01 T03310184  RH  042%=      5-min Rain = 0
KMC4 142131Z 16017G22KT 33/19 A2986 RMK A01 T03310185  RH  042%=      5-min Rain = 0
KMC4 142132Z 16017KT 33/19 A2986 RMK A01 T03310185  RH  042%=      5-min Rain = 0
KMC4 142133Z 16014KT 33/19 A2986 RMK A01 T03310185  RH  042%=      5-min Rain = 0
KMC4 142134Z 15015KT 33/19 A2986 RMK A01 T03310186  RH  042%=      5-min Rain = 0
KMC4 142135Z 15020KT 33/19 A2986 RMK A01 T03320185  RH  042%=      5-min Rain = 0
KMC4 142136Z 15017KT 33/19 A2986 RMK A01 T03320185  RH  042%=      5-min Rain = 0
KMC4 142137Z 16017KT 33/19 A2986 RMK A01 T03320185  RH  042%=      5-min Rain = 0
KMC4 142138Z 16017G23KT 33/19 A2986 RMK A01 T03320185  RH  042%=      5-min Rain = 0
KMC4 142139Z 16018KT 33/19 A2986 RMK A01 T03320185  RH  042%=      5-min Rain = 0
KMC4 142140Z 15013G18KT 33/19 A2986 RMK A01 T03320186  RH  042%=      5-min Rain = 0
KMC4 142141Z 15019G24KT 33/19 A2986 RMK A01 T03330185  RH  042%=      5-min Rain = 0
KMC4 142142Z 15021KT 33/19 A2986 RMK A01 T03320185  RH  042%=      5-min Rain = 0
KMC4 142143Z 15018KT 33/19 A2986 RMK A01 T03310185  RH  042%=      5-min Rain = 0
KMC4 142144Z 15018KT 33/19 A2986 RMK A01 T03310185  RH  042%=      5-min Rain = 0
KMC4 142145Z 15020G26KT 33/19 A2986 RMK A01 T03310185  RH  042%=      5-min Rain = 0
KMC4 142146Z 15018G23KT 33/18 A2986 RMK A01 T03310184  RH  042%=      5-min Rain = 0
KMC4 142147Z 16017KT 33/19 A2986 RMK A01 T03310185  RH  042%=      5-min Rain = 0
KMC4 142148Z 16018G23KT 33/19 A2986 RMK A01 T03300185  RH  042%=      5-min Rain = 0
KMC4 142149Z 16019KT 33/19 A2986 RMK A01 T03300185  RH  042%=      5-min Rain = 0
KMC4 142150Z 16016KT 33/19 A2986 RMK A01 T03300185  RH  042%=      5-min Rain = 0
KMC4 142151Z 15013KT 33/19 A2986 RMK A01 T03300186  RH  043%=      5-min Rain = 0
KMC4 142152Z 15016KT 33/19 A2986 RMK A01 T03310186  RH  042%=      5-min Rain = 0
KMC4 142153Z 16015G21KT 33/19 A2986 RMK A01 T03320186  RH  042%=      5-min Rain = 0
KMC4 142154Z 16018G24KT 33/19 A2986 RMK A01 T03310185  RH  042%=      5-min Rain = 0
KMC4 142155Z 16018KT 33/19 A2986 RMK A01 T03310185  RH  042%=      5-min Rain = 0
KMC4 142156Z 15016KT 33/19 A2986 RMK A01 T03300186  RH  042%=      5-min Rain = 0
KMC4 142157Z 16017KT 33/19 A2986 RMK A01 T03300185  RH  042%=      5-min Rain = 0
KMC4 142158Z 16016G22KT 33/19 A2986 RMK A01 T03300186  RH  042%=      5-min Rain = 0
KMC4 142159Z 15019KT 33/19 A2986 RMK A01 T03300185  RH  042%=      5-min Rain = 0
KMC4 142200Z 15016KT 33/19 A2986 RMK A01 T03290185  RH  042%=      5-min Rain = 0
KMC4 142201Z 16019KT 33/19 A2986 RMK A01 T03300186  RH  043%=      5-min Rain = 0
KMC4 142202Z 16018KT 33/19 A2986 RMK A01 T03290185  RH  042%=      5-min Rain = 0
KMC4 142203Z 15017G22KT 33/19 A2986 RMK A01 T03290185  RH  043%=      5-min Rain = 0
KMC4 142204Z 14014G19KT 33/19 A2986 RMK A01 T03290185  RH  043%=      5-min Rain = 0
KMC4 142205Z 15018KT 33/19 A2986 RMK A01 T03290186  RH  043%=      5-min Rain = 0
KMC4 142206Z 15020KT 33/19 A2986 RMK A01 T03290185  RH  043%=      5-min Rain = 0
KMC4 142207Z 15020KT 33/19 A2986 RMK A01 T03290186  RH  043%=      5-min Rain = 0
KMC4 142208Z 16020KT 33/19 A2986 RMK A01 T03280185  RH  043%=      5-min Rain = 0
KMC4 142209Z 16021KT 33/19 A2986 RMK A01 T03280185  RH  043%=      5-min Rain = 0
KMC4 142210Z 15018KT 33/18 A2986 RMK A01 T03270184  RH  043%=      5-min Rain = 0
KMC4 142211Z 15017KT 33/19 A2986 RMK A01 T03270185  RH  043%=      5-min Rain = 0
KMC4 142212Z 16016KT 33/18 A2986 RMK A01 T03270184  RH  043%=      5-min Rain = 0
KMC4 142213Z 16013G19KT 33/19 A2986 RMK A01 T03270185  RH  043%=      5-min Rain = 0
KMC4 142214Z 15015KT 33/19 A2986 RMK A01 T03270185  RH  043%=      5-min Rain = 0
KMC4 142215Z 16015KT 33/19 A2986 RMK A01 T03260185  RH  043%=      5-min Rain = 0
KMC4 142216Z 17017KT 33/19 A2986 RMK A01 T03260185  RH  043%=      5-min Rain = 0
KMC4 142217Z 16013KT 33/19 A2986 RMK A01 T03260185  RH  043%=      5-min Rain = 0
KMC4 142218Z 15018G24KT 33/19 A2986 RMK A01 T03260186  RH  043%=      5-min Rain = 0
KMC4 142219Z 16017G23KT 33/19 A2986 RMK A01 T03260186  RH  043%=      5-min Rain = 0
KMC4 142220Z 16020G25KT 33/19 A2985 RMK A01 T03260186  RH  044%=      5-min Rain = 0
KMC4 142221Z 15019KT 33/19 A2985 RMK A01 T03250186  RH  044%=      5-min Rain = 0
KMC4 142222Z 15019KT 33/19 A2985 RMK A01 T03250186  RH  044%=      5-min Rain = 0
KMC4 142223Z 16015KT 33/19 A2985 RMK A01 T03250186  RH  044%=      5-min Rain = 0
KMC4 142224Z 16016KT 33/19 A2985 RMK A01 T03250186  RH  044%=      5-min Rain = 0
KMC4 142225Z 15019G24KT 32/19 A2985 RMK A01 T03240186  RH  044%=      5-min Rain = 0
KMC4 142226Z 15019KT 32/19 A2985 RMK A01 T03240185  RH  044%=      5-min Rain = 0
KMC4 142227Z 15015KT 32/19 A2985 RMK A01 T03240185  RH  044%=      5-min Rain = 0
KMC4 142228Z 16013KT 32/19 A2985 RMK A01 T03240186  RH  044%=      5-min Rain = 0
KMC4 142229Z 15016KT 32/19 A2985 RMK A01 T03240186  RH  044%=      5-min Rain = 0
KMC4 142230Z 16017KT 32/19 A2985 RMK A01 T03230185  RH  044%=      5-min Rain = 0
KMC4 142231Z 16015KT 32/19 A2985 RMK A01 T03230185  RH  044%=      5-min Rain = 0
KMC4 142232Z 16016KT 32/19 A2985 RMK A01 T03230186  RH  044%=      5-min Rain = 0
KMC4 142233Z 16018KT 32/19 A2985 RMK A01 T03230186  RH  044%=      5-min Rain = 0
KMC4 142234Z 16017KT 32/19 A2985 RMK A01 T03220186  RH  044%=      5-min Rain = 0
KMC4 142235Z 16016KT 32/19 A2985 RMK A01 T03210186  RH  045%=      5-min Rain = 0
KMC4 142236Z 15020KT 32/19 A2985 RMK A01 T03210186  RH  045%=      5-min Rain = 0
KMC4 142237Z 15018KT 32/19 A2985 RMK A01 T03220185  RH  044%=      5-min Rain = 0
KMC4 142238Z 17016KT 32/19 A2985 RMK A01 T03210185  RH  044%=      5-min Rain = 0
KMC4 142239Z 17014KT 32/19 A2985 RMK A01 T03210186  RH  045%=      5-min Rain = 0
KMC4 142240Z 16016KT 32/19 A2985 RMK A01 T03210187  RH  045%=      5-min Rain = 0
KMC4 142241Z 15019KT 32/19 A2985 RMK A01 T03200186  RH  045%=      5-min Rain = 0
KMC4 142242Z 16017G22KT 32/19 A2985 RMK A01 T03200186  RH  045%=      5-min Rain = 0
KMC4 142243Z 16015KT 32/19 A2985 RMK A01 T03200187  RH  045%=      5-min Rain = 0
KMC4 142244Z 15017KT 32/19 A2985 RMK A01 T03200186  RH  045%=      5-min Rain = 0
KMC4 142245Z 16018KT 32/19 A2985 RMK A01 T03190186  RH  045%=      5-min Rain = 0
KMC4 142246Z 15014KT 32/19 A2985 RMK A01 T03190186  RH  045%=      5-min Rain = 0
KMC4 142247Z 16016KT 32/19 A2985 RMK A01 T03190187  RH  045%=      5-min Rain = 0
KMC4 142248Z 15012G17KT 32/19 A2985 RMK A01 T03190187  RH  046%=      5-min Rain = 0
KMC4 142249Z 15015KT 32/19 A2985 RMK A01 T03190187  RH  046%=      5-min Rain = 0
KMC4 142250Z 15017KT 32/19 A2985 RMK A01 T03190187  RH  046%=      5-min Rain = 0
KMC4 142251Z 16015KT 32/19 A2985 RMK A01 T03180187  RH  046%=      5-min Rain = 0
KMC4 142252Z 16013KT 32/19 A2985 RMK A01 T03180187  RH  046%=      5-min Rain = 0
KMC4 142253Z 15012KT 32/19 A2986 RMK A01 T03180187  RH  046%=      5-min Rain = 0
KMC4 142254Z 16015KT 32/19 A2985 RMK A01 T03170187  RH  046%=      5-min Rain = 0
KMC4 142255Z 15016KT 32/19 A2985 RMK A01 T03170187  RH  046%=      5-min Rain = 0
KMC4 142256Z 16015KT 32/19 A2985 RMK A01 T03170187  RH  046%=      5-min Rain = 0
KMC4 142257Z 17015KT 32/19 A2985 RMK A01 T03170187  RH  046%=      5-min Rain = 0
KMC4 142258Z 16015KT 32/19 A2985 RMK A01 T03170187  RH  046%=      5-min Rain = 0
KMC4 142259Z 16012KT 32/19 A2985 RMK A01 T03160187  RH  046%=      5-min Rain = 0
KMC4 142300Z 15015KT 32/19 A2985 RMK A01 T03160187  RH  046%=      5-min Rain = 0
KMC4 142301Z 16017KT 32/19 A2985 RMK A01 T03160187  RH  046%=      5-min Rain = 0
KMC4 142302Z 17014KT 32/19 A2985 RMK A01 T03150187  RH  047%=      5-min Rain = 0
KMC4 142303Z 17015KT 32/19 A2985 RMK A01 T03150187  RH  047%=      5-min Rain = 0
KMC4 142304Z 16015KT 32/19 A2985 RMK A01 T03150187  RH  047%=      5-min Rain = 0
KMC4 142305Z 16015KT 32/19 A2985 RMK A01 T03150188  RH  047%=      5-min Rain = 0
KMC4 142306Z 15017KT 32/19 A2985 RMK A01 T03150187  RH  047%=      5-min Rain = 0
KMC4 142307Z 16016KT 32/19 A2985 RMK A01 T03150188  RH  047%=      5-min Rain = 0
KMC4 142308Z 15017KT 32/19 A2985 RMK A01 T03150188  RH  047%=      5-min Rain = 0
KMC4 142309Z 15017KT 32/19 A2985 RMK A01 T03150188  RH  047%=      5-min Rain = 0
KMC4 142310Z 15016KT 31/19 A2985 RMK A01 T03140188  RH  047%=      5-min Rain = 0
KMC4 142311Z 15016KT 31/19 A2985 RMK A01 T03140188  RH  047%=      5-min Rain = 0
KMC4 142312Z 15016KT 31/19 A2985 RMK A01 T03140188  RH  047%=      5-min Rain = 0
KMC4 142313Z 16016KT 31/19 A2985 RMK A01 T03140188  RH  047%=      5-min Rain = 0
KMC4 142314Z 16018KT 31/19 A2985 RMK A01 T03140188  RH  047%=      5-min Rain = 0
KMC4 142315Z 16014KT 31/19 A2985 RMK A01 T03140188  RH  047%=      5-min Rain = 0
KMC4 142316Z 17015KT 31/19 A2985 RMK A01 T03140188  RH  047%=      5-min Rain = 0
KMC4 142317Z 15018KT 31/19 A2984 RMK A01 T03140188  RH  047%=      5-min Rain = 0
KMC4 142318Z 16016KT 31/19 A2984 RMK A01 T03140188  RH  047%=      5-min Rain = 0
KMC4 142319Z 16015KT 31/19 A2984 RMK A01 T03140188  RH  047%=      5-min Rain = 0
KMC4 142320Z 15013KT 31/19 A2984 RMK A01 T03140188  RH  047%=      5-min Rain = 0
KMC4 142321Z 16016KT 31/19 A2984 RMK A01 T03130188  RH  047%=      5-min Rain = 0
KMC4 142322Z 17015KT 31/19 A2984 RMK A01 T03130188  RH  047%=      5-min Rain = 0
KMC4 142323Z 16014KT 31/19 A2984 RMK A01 T03130188  RH  048%=      5-min Rain = 0
KMC4 142324Z 15016KT 31/19 A2984 RMK A01 T03130188  RH  048%=      5-min Rain = 0
KMC4 142325Z 17017KT 31/19 A2984 RMK A01 T03130188  RH  047%=      5-min Rain = 0
KMC4 142326Z 16016G21KT 31/19 A2984 RMK A01 T03130188  RH  047%=      5-min Rain = 0
KMC4 142327Z 16017KT 31/19 A2984 RMK A01 T03130188  RH  047%=      5-min Rain = 0
KMC4 142328Z 16018KT 31/19 A2984 RMK A01 T03120187  RH  047%=      5-min Rain = 0
KMC4 142329Z 16017G23KT 31/19 A2984 RMK A01 T03130187  RH  047%=      5-min Rain = 0
KMC4 142330Z 16017KT 31/19 A2984 RMK A01 T03130188  RH  047%=      5-min Rain = 0
KMC4 142331Z 17017KT 31/19 A2983 RMK A01 T03130188  RH  047%=      5-min Rain = 0
KMC4 142332Z 17018KT 31/19 A2984 RMK A01 T03130188  RH  048%=      5-min Rain = 0
KMC4 142333Z 16014KT 31/19 A2984 RMK A01 T03120188  RH  048%=      5-min Rain = 0
KMC4 142334Z 16014KT 31/19 A2984 RMK A01 T03120188  RH  048%=      5-min Rain = 0
KMC4 142335Z 15014G19KT 31/19 A2983 RMK A01 T03120188  RH  048%=      5-min Rain = 0
KMC4 142336Z 16014KT 31/19 A2983 RMK A01 T03120188  RH  048%=      5-min Rain = 0
KMC4 142337Z 16017KT 31/19 A2983 RMK A01 T03120188  RH  048%=      5-min Rain = 0
KMC4 142338Z 16016KT 31/19 A2983 RMK A01 T03120188  RH  048%=      5-min Rain = 0
KMC4 142339Z 17016KT 31/19 A2983 RMK A01 T03120188  RH  048%=      5-min Rain = 0
KMC4 142340Z 16014KT 31/19 A2983 RMK A01 T03120189  RH  048%=      5-min Rain = 0
KMC4 142341Z 15016KT 31/19 A2983 RMK A01 T03110188  RH  048%=      5-min Rain = 0
KMC4 142342Z 15014KT 31/19 A2983 RMK A01 T03110189  RH  048%=      5-min Rain = 0
KMC4 142343Z 15016G22KT 31/19 A2983 RMK A01 T03110189  RH  048%=      5-min Rain = 0
KMC4 142344Z 16016KT 31/19 A2983 RMK A01 T03110188  RH  048%=      5-min Rain = 0
KMC4 142345Z 15012KT 31/19 A2983 RMK A01 T03110189  RH  048%=      5-min Rain = 0
KMC4 142346Z 15016KT 31/19 A2983 RMK A01 T03110189  RH  048%=      5-min Rain = 0
KMC4 142347Z 16017KT 31/19 A2983 RMK A01 T03120189  RH  048%=      5-min Rain = 0
KMC4 142348Z 16014KT 31/19 A2983 RMK A01 T03110189  RH  048%=      5-min Rain = 0
KMC4 142349Z 16014G19KT 31/19 A2983 RMK A01 T03110189  RH  048%=      5-min Rain = 0
KMC4 142350Z 16014KT 31/19 A2983 RMK A01 T03110189  RH  048%=      5-min Rain = 0
KMC4 142351Z 15014KT 31/19 A2983 RMK A01 T03110189  RH  048%=      5-min Rain = 0
KMC4 142352Z 16015KT 31/19 A2983 RMK A01 T03110189  RH  048%=      5-min Rain = 0
KMC4 142353Z 15014KT 31/19 A2983 RMK A01 T03110189  RH  048%=      5-min Rain = 0
KMC4 142354Z 16014KT 31/19 A2983 RMK A01 T03100188  RH  048%=      5-min Rain = 0
KMC4 142355Z 16014KT 31/19 A2983 RMK A01 T03100188  RH  048%=      5-min Rain = 0
KMC4 142356Z 15013G18KT 31/19 A2983 RMK A01 T03100189  RH  048%=      5-min Rain = 0
KMC4 142357Z 16012KT 31/19 A2983 RMK A01 T03100189  RH  048%=      5-min Rain = 0
KMC4 142358Z 16015KT 31/19 A2983 RMK A01 T03100189  RH  048%=      5-min Rain = 0
KMC4 142359Z 15015KT 31/19 A2983 RMK A01 T03100188  RH  048%=      5-min Rain = 0
KMC4 150000Z 15018KT 31/19 A2983 RMK A01 T03100188  RH  048%=      5-min Rain = 0
KMC4 150001Z 15014KT 31/19 A2983 RMK A01 T03100189  RH  048%=      5-min Rain = 0
KMC4 150002Z 15013KT 31/19 A2984 RMK A01 T03100189  RH  049%=      5-min Rain = 0
KMC4 150003Z 16015KT 31/19 A2984 RMK A01 T03100189  RH  049%=      5-min Rain = 0
KMC4 150004Z 15017KT 31/19 A2984 RMK A01 T03090189  RH  049%=      5-min Rain = 0
KMC4 150005Z 15015KT 31/19 A2984 RMK A01 T03100189  RH  049%=      5-min Rain = 0
KMC4 150006Z 15015KT 31/19 A2984 RMK A01 T03090189  RH  049%=      5-min Rain = 0
KMC4 150007Z 16015G20KT 31/19 A2984 RMK A01 T03090189  RH  049%=      5-min Rain = 0
KMC4 150008Z 16014KT 31/19 A2984 RMK A01 T03090189  RH  049%=      5-min Rain = 0
KMC4 150009Z 16017KT 31/19 A2984 RMK A01 T03090189  RH  049%=      5-min Rain = 0
KMC4 150010Z 16017G23KT 31/19 A2984 RMK A01 T03080189  RH  049%=      5-min Rain = 0
KMC4 150011Z 16015KT 31/19 A2984 RMK A01 T03090189  RH  049%=      5-min Rain = 0
KMC4 150012Z 17015KT 31/19 A2985 RMK A01 T03080189  RH  049%=      5-min Rain = 0
KMC4 150013Z 16014KT 31/19 A2985 RMK A01 T03080189  RH  049%=      5-min Rain = 0
KMC4 150014Z 16014KT 31/19 A2984 RMK A01 T03080189  RH  049%=      5-min Rain = 0
KMC4 150015Z 16015KT 31/19 A2984 RMK A01 T03080189  RH  049%=      5-min Rain = 0
KMC4 150016Z 15012KT 31/19 A2984 RMK A01 T03080189  RH  049%=      5-min Rain = 0
KMC4 150017Z 15014KT 31/19 A2984 RMK A01 T03080189  RH  049%=      5-min Rain = 0
KMC4 150018Z 15014KT 31/19 A2984 RMK A01 T03070189  RH  049%=      5-min Rain = 0
KMC4 150019Z 15013KT 31/19 A2984 RMK A01 T03080189  RH  049%=      5-min Rain = 0
KMC4 150020Z 15018KT 31/19 A2984 RMK A01 T03080189  RH  049%=      5-min Rain = 0
KMC4 150021Z 15014KT 31/19 A2984 RMK A01 T03080190  RH  049%=      5-min Rain = 0
KMC4 150022Z 15013KT 31/19 A2984 RMK A01 T03080190  RH  049%=      5-min Rain = 0
KMC4 150023Z 15016G21KT 31/19 A2984 RMK A01 T03070190  RH  050%=      5-min Rain = 0
KMC4 150024Z 16017KT 31/19 A2984 RMK A01 T03070190  RH  050%=      5-min Rain = 0
KMC4 150025Z 15016KT 31/19 A2984 RMK A01 T03070190  RH  050%=      5-min Rain = 0
KMC4 150026Z 15018KT 31/19 A2984 RMK A01 T03070190  RH  050%=      5-min Rain = 0
KMC4 150027Z 15016KT 31/19 A2984 RMK A01 T03070190  RH  050%=      5-min Rain = 0
KMC4 150028Z 15019KT 31/19 A2984 RMK A01 T03070190  RH  050%=      5-min Rain = 0
KMC4 150029Z 15017KT 31/19 A2984 RMK A01 T03070190  RH  050%=      5-min Rain = 0
KMC4 150030Z 15015KT 31/19 A2984 RMK A01 T03070190  RH  050%=      5-min Rain = 0
KMC4 150031Z 16014KT 31/19 A2984 RMK A01 T03070191  RH  050%=      5-min Rain = 0
KMC4 150032Z 15018KT 31/19 A2984 RMK A01 T03070191  RH  050%=      5-min Rain = 0
KMC4 150033Z 15018KT 31/19 A2984 RMK A01 T03070191  RH  050%=      5-min Rain = 0
KMC4 150034Z 15016KT 31/19 A2984 RMK A01 T03070191  RH  050%=      5-min Rain = 0
KMC4 150035Z 15015KT 31/19 A2984 RMK A01 T03060191  RH  050%=      5-min Rain = 0
KMC4 150036Z 15016KT 31/19 A2984 RMK A01 T03060192  RH  051%=      5-min Rain = 0
KMC4 150037Z 15013KT 31/19 A2984 RMK A01 T03060192  RH  051%=      5-min Rain = 0
KMC4 150038Z 15014KT 31/19 A2984 RMK A01 T03060192  RH  051%=      5-min Rain = 0
KMC4 150039Z 15015KT 31/19 A2984 RMK A01 T03050193  RH  051%=      5-min Rain = 0
KMC4 150040Z 15016KT 31/19 A2984 RMK A01 T03050192  RH  051%=      5-min Rain = 0
KMC4 150041Z 16013KT 31/19 A2984 RMK A01 T03050192  RH  051%=      5-min Rain = 0
KMC4 150042Z 16016G21KT 30/19 A2984 RMK A01 T03040192  RH  051%=      5-min Rain = 0
KMC4 150043Z 16016KT 30/19 A2984 RMK A01 T03040192  RH  051%=      5-min Rain = 0
KMC4 150044Z 15015KT 30/19 A2984 RMK A01 T03040192  RH  051%=      5-min Rain = 0
KMC4 150045Z 15016KT 30/19 A2984 RMK A01 T03040192  RH  051%=      5-min Rain = 0
KMC4 150046Z 15015KT 30/19 A2984 RMK A01 T03040193  RH  051%=      5-min Rain = 0
KMC4 150047Z 16016G22KT 30/19 A2983 RMK A01 T03040193  RH  051%=      5-min Rain = 0
KMC4 150048Z 16018KT 30/19 A2983 RMK A01 T03040192  RH  051%=      5-min Rain = 0
KMC4 150049Z 16018KT 30/19 A2983 RMK A01 T03030193  RH  052%=      5-min Rain = 0
KMC4 150050Z 15019G24KT 30/19 A2983 RMK A01 T03040193  RH  052%=      5-min Rain = 0
KMC4 150051Z 15020KT 30/19 A2983 RMK A01 T03030193  RH  052%=      5-min Rain = 0
KMC4 150052Z 15024G30KT 30/19 A2983 RMK A01 T03030193  RH  052%=      5-min Rain = 0
KMC4 150053Z 15021G28KT 30/19 A2982 RMK A01 T03030193  RH  052%=      5-min Rain = 0
KMC4 150054Z 15018KT 30/19 A2983 RMK A01 T03040193  RH  052%=      5-min Rain = 0
KMC4 150055Z 15017KT 30/19 A2983 RMK A01 T03040193  RH  052%=      5-min Rain = 0
KMC4 150056Z 15016KT 30/19 A2983 RMK A01 T03030193  RH  052%=      5-min Rain = 0
KMC4 150057Z 15016G23KT 30/19 A2983 RMK A01 T03030193  RH  052%=      5-min Rain = 0
KMC4 150058Z 16015KT 30/19 A2984 RMK A01 T03030194  RH  052%=      5-min Rain = 0
KMC4 150059Z 15015KT 30/19 A2984 RMK A01 T03030194  RH  052%=      5-min Rain = 0
KMC4 150100Z 15015KT 30/19 A2984 RMK A01 T03020194  RH  052%=      5-min Rain = 0
KMC4 150101Z 15014KT 30/19 A2984 RMK A01 T03030194  RH  052%=      5-min Rain = 0
KMC4 150102Z 15016KT 30/19 A2984 RMK A01 T03020194  RH  052%=      5-min Rain = 0
KMC4 150103Z 15013KT 30/20 A2985 RMK A01 T03030195  RH  052%=      5-min Rain = 0
KMC4 150104Z 15013KT 30/20 A2985 RMK A01 T03020195  RH  052%=      5-min Rain = 0
KMC4 150105Z 15010KT 30/20 A2985 RMK A01 T03020195  RH  053%=      5-min Rain = 0
KMC4 150106Z 15012KT 30/20 A2985 RMK A01 T03020195  RH  053%=      5-min Rain = 0
KMC4 150107Z 15009KT 30/20 A2985 RMK A01 T03020195  RH  053%=      5-min Rain = 0
KMC4 150108Z 15009KT 30/20 A2985 RMK A01 T03020195  RH  053%=      5-min Rain = 0
KMC4 150109Z 14012KT 30/20 A2986 RMK A01 T03020196  RH  053%=      5-min Rain = 0
KMC4 150110Z 14010KT 30/20 A2986 RMK A01 T03020196  RH  053%=      5-min Rain = 0
KMC4 150111Z 13010KT 30/20 A2986 RMK A01 T03010196  RH  053%=      5-min Rain = 0
KMC4 150112Z 12007KT 30/20 A2986 RMK A01 T03010196  RH  053%=      5-min Rain = 0
KMC4 150113Z 12007G15KT 30/20 A2986 RMK A01 T03010196  RH  053%=      5-min Rain = 0
KMC4 150114Z 13010KT 30/20 A2986 RMK A01 T03010196  RH  054%=      5-min Rain = 0
KMC4 150115Z 12009KT 30/20 A2986 RMK A01 T03010197  RH  054%=      5-min Rain = 0
KMC4 150116Z 12009KT 30/20 A2986 RMK A01 T03000197  RH  054%=      5-min Rain = 0
KMC4 150117Z 13009KT 30/20 A2986 RMK A01 T03000197  RH  054%=      5-min Rain = 0
KMC4 150118Z 14008KT 30/20 A2986 RMK A01 T03000197  RH  054%=      5-min Rain = 0
KMC4 150119Z 12010KT 30/20 A2986 RMK A01 T03000197  RH  054%=      5-min Rain = 0
KMC4 150120Z 12010KT 30/20 A2986 RMK A01 T02990197  RH  054%=      5-min Rain = 0
KMC4 150121Z 11010KT 30/20 A2985 RMK A01 T02990197  RH  054%=      5-min Rain = 0
KMC4 150122Z 11010KT 30/20 A2985 RMK A01 T02990198  RH  054%=      5-min Rain = 0
KMC4 150123Z 11010KT 30/20 A2985 RMK A01 T02990197  RH  055%=      5-min Rain = 0
KMC4 150124Z 11011KT 30/20 A2985 RMK A01 T02990198  RH  055%=      5-min Rain = 0
KMC4 150125Z 12015KT 30/20 A2985 RMK A01 T02990198  RH  055%=      5-min Rain = 0
KMC4 150126Z 12012KT 30/20 A2986 RMK A01 T02990198  RH  055%=      5-min Rain = 0
KMC4 150127Z 13008KT 30/20 A2986 RMK A01 T02990198  RH  055%=      5-min Rain = 0
KMC4 150128Z 13009KT 30/20 A2986 RMK A01 T02980198  RH  055%=      5-min Rain = 0
KMC4 150129Z 13012KT 30/20 A2986 RMK A01 T02980198  RH  055%=      5-min Rain = 0
KMC4 150130Z 12014KT 30/20 A2986 RMK A01 T02970198  RH  055%=      5-min Rain = 0
KMC4 150131Z 13012KT 30/20 A2986 RMK A01 T02970198  RH  055%=      5-min Rain = 0
KMC4 150132Z 13014KT 30/20 A2986 RMK A01 T02980198  RH  055%=      5-min Rain = 0
KMC4 150133Z 13016KT 30/20 A2986 RMK A01 T02970198  RH  055%=      5-min Rain = 0
KMC4 150134Z 13013KT 30/20 A2986 RMK A01 T02970198  RH  055%=      5-min Rain = 0
KMC4 150135Z 12011G16KT 30/20 A2986 RMK A01 T02970198  RH  055%=      5-min Rain = 0
KMC4 150136Z 12012KT 30/20 A2986 RMK A01 T02970198  RH  055%=      5-min Rain = 0
KMC4 150137Z 13013KT 30/20 A2986 RMK A01 T02980198  RH  055%=      5-min Rain = 0
KMC4 150138Z 13011KT 30/20 A2986 RMK A01 T02970198  RH  055%=      5-min Rain = 0
KMC4 150139Z 14011KT 30/20 A2986 RMK A01 T02970198  RH  055%=      5-min Rain = 0
KMC4 150140Z 13011KT 30/20 A2986 RMK A01 T02970198  RH  055%=      5-min Rain = 0
KMC4 150141Z 14011KT 30/20 A2986 RMK A01 T02960198  RH  056%=      5-min Rain = 0
KMC4 150142Z 14012KT 30/20 A2985 RMK A01 T02960198  RH  056%=      5-min Rain = 0
KMC4 150143Z 14015KT 30/20 A2985 RMK A01 T02960198  RH  056%=      5-min Rain = 0
KMC4 150144Z 15013KT 30/20 A2985 RMK A01 T02960198  RH  056%=      5-min Rain = 0
KMC4 150145Z 14015KT 30/20 A2985 RMK A01 T02950197  RH  056%=      5-min Rain = 0
KMC4 150146Z 15015KT 30/20 A2985 RMK A01 T02950197  RH  055%=      5-min Rain = 0
KMC4 150147Z 13015KT 30/20 A2985 RMK A01 T02950197  RH  055%=      5-min Rain = 0
KMC4 150148Z 15017KT 30/20 A2985 RMK A01 T02950196  RH  055%=      5-min Rain = 0
KMC4 150149Z 14013KT 30/20 A2985 RMK A01 T02950196  RH  055%=      5-min Rain = 0
KMC4 150150Z 14014KT 30/20 A2985 RMK A01 T02950196  RH  055%=      5-min Rain = 0
KMC4 150151Z 14015KT 30/20 A2985 RMK A01 T02950196  RH  055%=      5-min Rain = 0
KMC4 150152Z 15013KT 30/20 A2985 RMK A01 T02950196  RH  055%=      5-min Rain = 0
KMC4 150153Z 15014KT 30/20 A2985 RMK A01 T02950196  RH  055%=      5-min Rain = 0
KMC4 150154Z 15016KT 30/20 A2985 RMK A01 T02950195  RH  055%=      5-min Rain = 0
KMC4 150155Z 14015KT 30/20 A2985 RMK A01 T02950195  RH  055%=      5-min Rain = 0
KMC4 150156Z 14014KT 30/20 A2985 RMK A01 T02950195  RH  055%=      5-min Rain = 0
KMC4 150157Z 13013KT 30/20 A2985 RMK A01 T02950195  RH  055%=      5-min Rain = 0
KMC4 150158Z 14014KT 30/20 A2985 RMK A01 T02950195  RH  055%=      5-min Rain = 0
KMC4 150159Z 14013KT 30/20 A2985 RMK A01 T02950196  RH  055%=      5-min Rain = 0
KMC4 150200Z 14011KT 30/20 A2985 RMK A01 T02950195  RH  055%=      5-min Rain = 0
KMC4 150201Z 13010KT 29/20 A2985 RMK A01 T02940196  RH  055%=      5-min Rain = 0
KMC4 150202Z 14012KT 29/20 A2984 RMK A01 T02940195  RH  055%=      5-min Rain = 0
KMC4 150203Z 13011KT 29/20 A2984 RMK A01 T02930195  RH  056%=      5-min Rain = 0
KMC4 150204Z 13015KT 29/20 A2984 RMK A01 T02930195  RH  056%=      5-min Rain = 0
KMC4 150205Z 13014G19KT 29/19 A2983 RMK A01 T02920194  RH  055%=      5-min Rain = 0
KMC4 150206Z 13014KT 29/19 A2983 RMK A01 T02920194  RH  055%=      5-min Rain = 0
KMC4 150207Z 13014KT 29/19 A2983 RMK A01 T02920194  RH  055%=      5-min Rain = 0
KMC4 150208Z 13016KT 29/19 A2983 RMK A01 T02920194  RH  055%=      5-min Rain = 0
KMC4 150209Z 12012KT 29/19 A2982 RMK A01 T02920194  RH  055%=      5-min Rain = 0
KMC4 150210Z 12015KT 29/19 A2982 RMK A01 T02920194  RH  055%=      5-min Rain = 0
KMC4 150211Z 12015KT 29/19 A2982 RMK A01 T02920193  RH  055%=      5-min Rain = 0
KMC4 150212Z 12013KT 29/19 A2982 RMK A01 T02920192  RH  055%=      5-min Rain = 0
KMC4 150213Z 12011KT 29/19 A2982 RMK A01 T02920192  RH  055%=      5-min Rain = 0
KMC4 150214Z 12010KT 29/19 A2982 RMK A01 T02920192  RH  055%=      5-min Rain = 0
KMC4 150215Z 12012KT 29/19 A2982 RMK A01 T02920192  RH  055%=      5-min Rain = 0
KMC4 150216Z 13012KT 29/19 A2983 RMK A01 T02920192  RH  055%=      5-min Rain = 0
KMC4 150217Z 14011G16KT 29/19 A2983 RMK A01 T02920192  RH  055%=      5-min Rain = 0
KMC4 150218Z 13012KT 29/19 A2983 RMK A01 T02920192  RH  055%=      5-min Rain = 0
KMC4 150219Z 13012KT 29/19 A2984 RMK A01 T02910191  RH  055%=      5-min Rain = 0
KMC4 150220Z 12012KT 29/19 A2984 RMK A01 T02910190  RH  055%=      5-min Rain = 0
KMC4 150221Z 12011KT 29/19 A2984 RMK A01 T02910191  RH  055%=      5-min Rain = 0
KMC4 150222Z 12009KT 29/19 A2984 RMK A01 T02910191  RH  055%=      5-min Rain = 0
KMC4 150223Z 13009KT 29/19 A2985 RMK A01 T02910191  RH  055%=      5-min Rain = 0
KMC4 150224Z 14010KT 29/19 A2985 RMK A01 T02900191  RH  055%=      5-min Rain = 0
KMC4 150225Z 13010KT 29/19 A2985 RMK A01 T02900190  RH  055%=      5-min Rain = 0
KMC4 150226Z 14008KT 29/19 A2985 RMK A01 T02890190  RH  055%=      5-min Rain = 0
KMC4 150227Z 13006KT 29/19 A2985 RMK A01 T02890191  RH  055%=      5-min Rain = 0
KMC4 150228Z 13006KT 29/19 A2985 RMK A01 T02890190  RH  055%=      5-min Rain = 0
KMC4 150229Z 14006KT 29/19 A2985 RMK A01 T02890191  RH  055%=      5-min Rain = 0
KMC4 150230Z 15005KT 29/19 A2985 RMK A01 T02880190  RH  056%=      5-min Rain = 0
KMC4 150231Z 15005KT 29/19 A2985 RMK A01 T02880190  RH  056%=      5-min Rain = 0
KMC4 150232Z 15006KT 29/19 A2985 RMK A01 T02870190  RH  056%=      5-min Rain = 0
KMC4 150233Z 13005KT 29/19 A2985 RMK A01 T02860190  RH  056%=      5-min Rain = 0
KMC4 150234Z 13008KT 29/19 A2985 RMK A01 T02860189  RH  056%=      5-min Rain = 0
KMC4 150235Z 13008KT 29/19 A2985 RMK A01 T02860187  RH  055%=      5-min Rain = 0
KMC4 150236Z 16009KT 29/18 A2985 RMK A01 T02870184  RH  054%=      5-min Rain = 0
KMC4 150237Z 18008KT 29/18 A2985 RMK A01 T02890184  RH  053%=      5-min Rain = 0
KMC4 150238Z 17007KT 29/18 A2985 RMK A01 T02900184  RH  053%=      5-min Rain = 0
KMC4 150239Z 15009KT 29/18 A2986 RMK A01 T02910183  RH  052%=      5-min Rain = 0
KMC4 150240Z 17008KT 29/18 A2986 RMK A01 T02920182  RH  052%=      5-min Rain = 0
KMC4 150241Z 18007KT 29/18 A2986 RMK A01 T02930184  RH  052%=      5-min Rain = 0
KMC4 150242Z 18006KT 29/18 A2986 RMK A01 T02920183  RH  052%=      5-min Rain = 0
KMC4 150243Z 16006KT 29/18 A2986 RMK A01 T02920183  RH  052%=      5-min Rain = 0
KMC4 150244Z 17009KT 29/18 A2986 RMK A01 T02910183  RH  052%=      5-min Rain = 0
KMC4 150245Z 16012KT 29/18 A2986 RMK A01 T02920182  RH  052%=      5-min Rain = 0
KMC4 150246Z 16010KT 29/18 A2986 RMK A01 T02910182  RH  052%=      5-min Rain = 0
KMC4 150247Z 17010G16KT 29/18 A2986 RMK A01 T02910182  RH  052%=      5-min Rain = 0
KMC4 150248Z 17011G17KT 29/18 A2986 RMK A01 T02910181  RH  051%=      5-min Rain = 0
KMC4 150249Z 18013KT 29/18 A2986 RMK A01 T02920178  RH  050%=      5-min Rain = 0
KMC4 150250Z 18010KT 29/18 A2986 RMK A01 T02930178  RH  050%=      5-min Rain = 0
KMC4 150251Z 17009KT 29/18 A2986 RMK A01 T02940177  RH  049%=      5-min Rain = 0
KMC4 150252Z 17008KT 29/18 A2986 RMK A01 T02940177  RH  049%=      5-min Rain = 0
KMC4 150253Z 17007KT 29/18 A2986 RMK A01 T02940175  RH  049%=      5-min Rain = 0
KMC4 150254Z 18007KT 29/18 A2987 RMK A01 T02940176  RH  049%=      5-min Rain = 0
KMC4 150255Z 19008KT 29/18 A2987 RMK A01 T02940176  RH  049%=      5-min Rain = 0
KMC4 150256Z 17006KT 29/17 A2987 RMK A01 T02940172  RH  048%=      5-min Rain = 0
KMC4 150257Z 16005KT 29/17 A2987 RMK A01 T02940174  RH  048%=      5-min Rain = 0
KMC4 150258Z 16005KT 29/18 A2987 RMK A01 T02940175  RH  049%=      5-min Rain = 0
KMC4 150259Z 17006KT 29/17 A2988 RMK A01 T02940174  RH  049%=      5-min Rain = 0
KMC4 150300Z 17005KT 29/17 A2988 RMK A01 T02940174  RH  049%=      5-min Rain = 0
KMC4 150301Z 17005KT 29/18 A2988 RMK A01 T02930175  RH  049%=      5-min Rain = 0
KMC4 150302Z 18005KT 29/18 A2988 RMK A01 T02930175  RH  049%=      5-min Rain = 0
KMC4 150303Z 18005KT 29/17 A2988 RMK A01 T02920174  RH  049%=      5-min Rain = 0
KMC4 150304Z 17004KT 29/17 A2988 RMK A01 T02920174  RH  049%=      5-min Rain = 0
KMC4 150305Z 17006KT 29/17 A2988 RMK A01 T02910173  RH  049%=      5-min Rain = 0
KMC4 150306Z 17008KT 29/17 A2988 RMK A01 T02920171  RH  048%=      5-min Rain = 0
KMC4 150307Z 17008KT 29/17 A2988 RMK A01 T02920169  RH  047%=      5-min Rain = 0
KMC4 150308Z 17007KT 29/17 A2988 RMK A01 T02930169  RH  047%=      5-min Rain = 0
KMC4 150309Z 16007KT 29/17 A2988 RMK A01 T02930170  RH  048%=      5-min Rain = 0
KMC4 150310Z 16006KT 29/17 A2988 RMK A01 T02930172  RH  048%=      5-min Rain = 0
KMC4 150311Z 15005KT 29/17 A2988 RMK A01 T02910172  RH  048%=      5-min Rain = 0
KMC4 150312Z 14005KT 29/17 A2988 RMK A01 T02900172  RH  049%=      5-min Rain = 0
KMC4 150313Z 14005KT 29/17 A2988 RMK A01 T02890173  RH  050%=      5-min Rain = 0
KMC4 150314Z 13005KT 29/17 A2988 RMK A01 T02880174  RH  050%=      5-min Rain = 0
KMC4 150315Z 13006KT 29/17 A2987 RMK A01 T02870174  RH  050%=      5-min Rain = 0
KMC4 150316Z 13008KT 29/17 A2987 RMK A01 T02860173  RH  050%=      5-min Rain = 0
KMC4 150317Z 13006KT 29/17 A2987 RMK A01 T02860173  RH  050%=      5-min Rain = 0
KMC4 150318Z 14007KT 29/18 A2987 RMK A01 T02860175  RH  051%=      5-min Rain = 0
KMC4 150319Z 14006KT 29/17 A2987 RMK A01 T02860174  RH  051%=      5-min Rain = 0
KMC4 150320Z 14006KT 29/17 A2987 RMK A01 T02850174  RH  051%=      5-min Rain = 0
KMC4 150321Z 14007KT 28/17 A2986 RMK A01 T02840174  RH  051%=      5-min Rain = 0
KMC4 150322Z 14007KT 28/17 A2986 RMK A01 T02840174  RH  051%=      5-min Rain = 0
KMC4 150323Z 14006KT 28/17 A2986 RMK A01 T02830174  RH  051%=      5-min Rain = 0
KMC4 150324Z 14006KT 28/17 A2986 RMK A01 T02830174  RH  052%=      5-min Rain = 0
KMC4 150325Z 14005KT 28/17 A2986 RMK A01 T02820174  RH  052%=      5-min Rain = 0
KMC4 150326Z 13005KT 28/17 A2986 RMK A01 T02820174  RH  052%=      5-min Rain = 0
KMC4 150327Z 14008KT 28/17 A2985 RMK A01 T02810173  RH  052%=      5-min Rain = 0
KMC4 150328Z 15007KT 28/17 A2985 RMK A01 T02810171  RH  051%=      5-min Rain = 0
KMC4 150329Z 15008KT 28/17 A2985 RMK A01 T02820167  RH  050%=      5-min Rain = 0
KMC4 150330Z 15009KT 28/17 A2985 RMK A01 T02830166  RH  049%=      5-min Rain = 0
KMC4 150331Z 15009KT 28/16 A2985 RMK A01 T02840164  RH  048%=      5-min Rain = 0
KMC4 150332Z 17014KT 29/16 A2985 RMK A01 T02860159  RH  046%=      5-min Rain = 0
KMC4 150333Z 18014G19KT 29/15 A2985 RMK A01 T02910153  RH  043%=      5-min Rain = 0
KMC4 150334Z 17009KT 29/16 A2986 RMK A01 T02930156  RH  044%=      5-min Rain = 0
KMC4 150335Z 15010KT 29/16 A2985 RMK A01 T02930156  RH  043%=      5-min Rain = 0
KMC4 150336Z 15010KT 29/16 A2985 RMK A01 T02930160  RH  045%=      5-min Rain = 0
KMC4 150337Z 14009KT 29/16 A2985 RMK A01 T02920160  RH  045%=      5-min Rain = 0
KMC4 150338Z 16011KT 29/16 A2985 RMK A01 T02920158  RH  044%=      5-min Rain = 0
KMC4 150339Z 17013KT 29/16 A2985 RMK A01 T02920157  RH  044%=      5-min Rain = 0
KMC4 150340Z 16012KT 29/16 A2985 RMK A01 T02920156  RH  044%=      5-min Rain = 0
KMC4 150341Z 16011KT 29/16 A2985 RMK A01 T02930156  RH  043%=      5-min Rain = 0
KMC4 150342Z 16009KT 29/16 A2985 RMK A01 T02930156  RH  043%=      5-min Rain = 0
KMC4 150343Z 15009KT 29/16 A2985 RMK A01 T02930157  RH  044%=      5-min Rain = 0
KMC4 150344Z 15006KT 29/16 A2985 RMK A01 T02920157  RH  044%=      5-min Rain = 0
KMC4 150345Z 16009KT 29/16 A2985 RMK A01 T02910158  RH  045%=      5-min Rain = 0
KMC4 150346Z 15010KT 29/16 A2985 RMK A01 T02900161  RH  046%=      5-min Rain = 0
KMC4 150347Z 15010KT 29/16 A2985 RMK A01 T02890162  RH  046%=      5-min Rain = 0
KMC4 150348Z 14010KT 29/16 A2985 RMK A01 T02880162  RH  046%=      5-min Rain = 0
KMC4 150349Z 13011KT 29/16 A2985 RMK A01 T02880161  RH  046%=      5-min Rain = 0
KMC4 150350Z 12009KT 29/16 A2985 RMK A01 T02880160  RH  046%=      5-min Rain = 0
KMC4 150351Z 14012KT 29/16 A2985 RMK A01 T02880160  RH  046%=      5-min Rain = 0
KMC4 150352Z 14011KT 29/16 A2985 RMK A01 T02890162  RH  046%=      5-min Rain = 0
KMC4 150353Z 13008KT 29/16 A2986 RMK A01 T02890162  RH  046%=      5-min Rain = 0
KMC4 150354Z 13010KT 29/16 A2986 RMK A01 T02890162  RH  046%=      5-min Rain = 0
KMC4 150355Z 14011KT 29/16 A2986 RMK A01 T02890162  RH  046%=      5-min Rain = 0
KMC4 150356Z 14009KT 29/16 A2986 RMK A01 T02890162  RH  046%=      5-min Rain = 0
KMC4 150357Z 13010KT 29/16 A2986 RMK A01 T02890162  RH  046%=      5-min Rain = 0
KMC4 150358Z 13010KT 29/16 A2986 RMK A01 T02890160  RH  046%=      5-min Rain = 0
KMC4 150359Z 13008KT 29/16 A2986 RMK A01 T02900160  RH  045%=      5-min Rain = 0
KMC4 150400Z 12008KT 29/16 A2987 RMK A01 T02900160  RH  045%=      5-min Rain = 0
KMC4 150401Z 13008KT 29/16 A2987 RMK A01 T02900160  RH  045%=      5-min Rain = 0
KMC4 150402Z 11006KT 29/16 A2987 RMK A01 T02900160  RH  045%=      5-min Rain = 0
KMC4 150403Z 14007KT 29/16 A2987 RMK A01 T02910161  RH  045%=      5-min Rain = 0
KMC4 150404Z 14009G14KT 29/16 A2987 RMK A01 T02900161  RH  046%=      5-min Rain = 0
KMC4 150405Z 13010KT 29/16 A2986 RMK A01 T02900162  RH  046%=      5-min Rain = 0
KMC4 150406Z 13010KT 29/16 A2986 RMK A01 T02900162  RH  046%=      5-min Rain = 0
KMC4 150407Z 13011KT 29/16 A2986 RMK A01 T02890162  RH  046%=      5-min Rain = 0
KMC4 150408Z 13010KT 29/16 A2986 RMK A01 T02890163  RH  046%=      5-min Rain = 0
KMC4 150409Z 12010KT 29/16 A2986 RMK A01 T02880163  RH  047%=      5-min Rain = 0
KMC4 150410Z 13011KT 29/16 A2986 RMK A01 T02880164  RH  047%=      5-min Rain = 0
KMC4 150411Z 14010KT 29/16 A2986 RMK A01 T02870164  RH  047%=      5-min Rain = 0
KMC4 150412Z 13010KT 29/16 A2986 RMK A01 T02860164  RH  048%=      5-min Rain = 0
KMC4 150413Z 14010KT 29/17 A2986 RMK A01 T02860165  RH  048%=      5-min Rain = 0
KMC4 150414Z 14013KT 29/16 A2986 RMK A01 T02850164  RH  048%=      5-min Rain = 0
KMC4 150415Z 14012KT 29/16 A2986 RMK A01 T02850164  RH  048%=      5-min Rain = 0
KMC4 150416Z 14011KT 29/16 A2987 RMK A01 T02850163  RH  048%=      5-min Rain = 0
KMC4 150417Z 15011KT 29/16 A2987 RMK A01 T02850162  RH  047%=      5-min Rain = 0
KMC4 150418Z 14010KT 29/16 A2987 RMK A01 T02850162  RH  047%=      5-min Rain = 0
KMC4 150419Z 14008KT 29/16 A2987 RMK A01 T02850162  RH  047%=      5-min Rain = 0
KMC4 150420Z 13007KT 29/16 A2987 RMK A01 T02850162  RH  047%=      5-min Rain = 0
KMC4 150421Z 12005KT 29/16 A2987 RMK A01 T02850162  RH  047%=      5-min Rain = 0
KMC4 150422Z 13004KT 29/16 A2988 RMK A01 T02850162  RH  047%=      5-min Rain = 0
KMC4 150423Z 12004KT 28/16 A2988 RMK A01 T02840162  RH  048%=      5-min Rain = 0
KMC4 150424Z 13004KT 28/16 A2988 RMK A01 T02840161  RH  047%=      5-min Rain = 0
KMC4 150425Z 11004KT 28/16 A2988 RMK A01 T02840162  RH  047%=      5-min Rain = 0
KMC4 150426Z 11003KT 28/16 A2988 RMK A01 T02840162  RH  048%=      5-min Rain = 0
KMC4 150427Z 07003KT 28/16 A2988 RMK A01 T02840162  RH  048%=      5-min Rain = 0
KMC4 150428Z 11006KT 28/16 A2988 RMK A01 T02840161  RH  047%=      5-min Rain = 0
KMC4 150429Z 13009KT 28/16 A2988 RMK A01 T02840160  RH  047%=      5-min Rain = 0
KMC4 150430Z 13008KT 28/16 A2988 RMK A01 T02840158  RH  046%=      5-min Rain = 0
KMC4 150431Z 13012KT 28/16 A2988 RMK A01 T02840157  RH  046%=      5-min Rain = 0
KMC4 150432Z 12011KT 29/16 A2988 RMK A01 T02850156  RH  045%=      5-min Rain = 0
KMC4 150433Z 12011KT 29/16 A2988 RMK A01 T02860157  RH  045%=      5-min Rain = 0
KMC4 150434Z 12010KT 29/16 A2988 RMK A01 T02860158  RH  046%=      5-min Rain = 0
KMC4 150435Z 12010KT 29/16 A2988 RMK A01 T02870158  RH  046%=      5-min Rain = 0
KMC4 150436Z 12009KT 29/16 A2988 RMK A01 T02860158  RH  046%=      5-min Rain = 0
KMC4 150437Z 12008KT 29/16 A2988 RMK A01 T02850158  RH  046%=      5-min Rain = 0
KMC4 150438Z 12007KT 29/16 A2988 RMK A01 T02850158  RH  046%=      5-min Rain = 0
KMC4 150439Z 11005KT 28/16 A2988 RMK A01 T02840158  RH  046%=      5-min Rain = 0
KMC4 150440Z 11007KT 28/16 A2988 RMK A01 T02840158  RH  046%=      5-min Rain = 0
KMC4 150441Z 11007KT 28/16 A2988 RMK A01 T02840157  RH  046%=      5-min Rain = 0
KMC4 150442Z 10008KT 28/16 A2988 RMK A01 T02840157  RH  046%=      5-min Rain = 0
KMC4 150443Z 12010KT 28/16 A2988 RMK A01 T02840157  RH  046%=      5-min Rain = 0
KMC4 150444Z 12009KT 28/16 A2988 RMK A01 T02830157  RH  046%=      5-min Rain = 0
KMC4 150445Z 11010G15KT 28/16 A2988 RMK A01 T02830156  RH  046%=      5-min Rain = 0
KMC4 150446Z 13012KT 28/16 A2988 RMK A01 T02820156  RH  046%=      5-min Rain = 0
KMC4 150447Z 12012KT 28/16 A2988 RMK A01 T02820156  RH  046%=      5-min Rain = 0
KMC4 150448Z 12010G15KT 28/16 A2988 RMK A01 T02820156  RH  046%=      5-min Rain = 0
KMC4 150449Z 12010KT 28/16 A2988 RMK A01 T02820156  RH  046%=      5-min Rain = 0
KMC4 150450Z 12010KT 28/16 A2988 RMK A01 T02810156  RH  046%=      5-min Rain = 0
KMC4 150451Z 13010KT 28/16 A2988 RMK A01 T02810156  RH  047%=      5-min Rain = 0
KMC4 150452Z 12009KT 28/16 A2988 RMK A01 T02800156  RH  047%=      5-min Rain = 0
KMC4 150453Z 13010KT 28/16 A2988 RMK A01 T02800155  RH  047%=      5-min Rain = 0
KMC4 150454Z 12011KT 28/16 A2988 RMK A01 T02800156  RH  047%=      5-min Rain = 0
KMC4 150455Z 12010KT 28/16 A2988 RMK A01 T02800156  RH  047%=      5-min Rain = 0
KMC4 150456Z 12011KT 28/16 A2988 RMK A01 T02800155  RH  047%=      5-min Rain = 0
KMC4 150457Z 13010KT 28/16 A2988 RMK A01 T02790155  RH  047%=      5-min Rain = 0
KMC4 150458Z 13009KT 28/16 A2989 RMK A01 T02790155  RH  047%=      5-min Rain = 0
KMC4 150459Z 13008KT 28/16 A2989 RMK A01 T02780155  RH  047%=      5-min Rain = 0

Page generated in 0.1468 seconds.